<?xml version="1.0" encoding="UTF-8" standalone="no" ?>
<gpx xmlns="http://www.topografix.com/GPX/1/1" xmlns:xsi="http://www.w3.org/2001/XMLSchema-instance" xsi:schemaLocation="http://www.topografix.com/GPX/1/1 http://www.topografix.com/GPX/1/1/gpx.xsd" version="1.1" creator="VisuGPX - https://www.visugpx.com">
  <metadata>
    <name>La combe du Capellan</name>
    <desc><![CDATA[Balade par la combe du Capellan et la fontaine du Rupt à côté de Venasque.]]></desc>
  </metadata>
  <trk>
    <name><![CDATA[2017-05-29 15:03:24]]></name>
    <trkseg>
      <trkpt lat="43.98565" lon="5.17261">
        <ele>341.41</ele>
        <time>2017-05-29T07:27:57Z</time>
      </trkpt>
      <trkpt lat="43.98565" lon="5.17261">
        <ele>341.41</ele>
        <time>2017-05-29T07:27:58Z</time>
      </trkpt>
      <trkpt lat="43.98563" lon="5.1726">
        <ele>340.92</ele>
        <time>2017-05-29T07:28:27Z</time>
      </trkpt>
      <trkpt lat="43.98563" lon="5.17263">
        <ele>340.92</ele>
        <time>2017-05-29T07:28:34Z</time>
      </trkpt>
      <trkpt lat="43.98562" lon="5.17273">
        <ele>340.44</ele>
        <time>2017-05-29T07:28:44Z</time>
      </trkpt>
      <trkpt lat="43.98561" lon="5.17274">
        <ele>340.44</ele>
        <time>2017-05-29T07:28:58Z</time>
      </trkpt>
      <trkpt lat="43.98559" lon="5.17275">
        <ele>340.44</ele>
        <time>2017-05-29T07:29:22Z</time>
      </trkpt>
      <trkpt lat="43.98559" lon="5.17274">
        <ele>339.96</ele>
        <time>2017-05-29T07:29:42Z</time>
      </trkpt>
      <trkpt lat="43.98558" lon="5.17274">
        <ele>339.96</ele>
        <time>2017-05-29T07:30:01Z</time>
      </trkpt>
      <trkpt lat="43.98559" lon="5.17268">
        <ele>339.96</ele>
        <time>2017-05-29T07:30:22Z</time>
      </trkpt>
      <trkpt lat="43.98563" lon="5.17269">
        <ele>339.96</ele>
        <time>2017-05-29T07:30:37Z</time>
      </trkpt>
      <trkpt lat="43.98566" lon="5.17266">
        <ele>339.96</ele>
        <time>2017-05-29T07:30:53Z</time>
      </trkpt>
      <trkpt lat="43.98574" lon="5.1726">
        <ele>339.96</ele>
        <time>2017-05-29T07:31:08Z</time>
      </trkpt>
      <trkpt lat="43.98577" lon="5.17264">
        <ele>339.48</ele>
        <time>2017-05-29T07:31:20Z</time>
      </trkpt>
      <trkpt lat="43.98579" lon="5.17267">
        <ele>339.48</ele>
        <time>2017-05-29T07:31:34Z</time>
      </trkpt>
      <trkpt lat="43.98583" lon="5.17274">
        <ele>338.04</ele>
        <time>2017-05-29T07:31:48Z</time>
      </trkpt>
      <trkpt lat="43.98583" lon="5.17274">
        <ele>338.04</ele>
        <time>2017-05-29T07:31:52Z</time>
      </trkpt>
      <trkpt lat="43.98585" lon="5.17276">
        <ele>340.92</ele>
        <time>2017-05-29T07:31:54Z</time>
      </trkpt>
      <trkpt lat="43.98585" lon="5.1728">
        <ele>338.52</ele>
        <time>2017-05-29T07:31:57Z</time>
      </trkpt>
      <trkpt lat="43.9859" lon="5.17294">
        <ele>337.56</ele>
        <time>2017-05-29T07:32:10Z</time>
      </trkpt>
      <trkpt lat="43.98601" lon="5.17315">
        <ele>336.6</ele>
        <time>2017-05-29T07:32:29Z</time>
      </trkpt>
      <trkpt lat="43.98613" lon="5.17337">
        <ele>335.16</ele>
        <time>2017-05-29T07:32:49Z</time>
      </trkpt>
      <trkpt lat="43.98617" lon="5.17349">
        <ele>335.16</ele>
        <time>2017-05-29T07:33:01Z</time>
      </trkpt>
      <trkpt lat="43.98603" lon="5.1737">
        <ele>335.16</ele>
        <time>2017-05-29T07:33:21Z</time>
      </trkpt>
      <trkpt lat="43.98592" lon="5.17386">
        <ele>336.6</ele>
        <time>2017-05-29T07:33:37Z</time>
      </trkpt>
      <trkpt lat="43.98578" lon="5.17403">
        <ele>336.6</ele>
        <time>2017-05-29T07:33:54Z</time>
      </trkpt>
      <trkpt lat="43.98558" lon="5.17411">
        <ele>337.56</ele>
        <time>2017-05-29T07:34:13Z</time>
      </trkpt>
      <trkpt lat="43.98547" lon="5.17417">
        <ele>336.12</ele>
        <time>2017-05-29T07:34:24Z</time>
      </trkpt>
      <trkpt lat="43.98529" lon="5.17426">
        <ele>335.64</ele>
        <time>2017-05-29T07:34:43Z</time>
      </trkpt>
      <trkpt lat="43.98507" lon="5.17435">
        <ele>335.16</ele>
        <time>2017-05-29T07:35:05Z</time>
      </trkpt>
      <trkpt lat="43.98486" lon="5.17442">
        <ele>334.2</ele>
        <time>2017-05-29T07:35:26Z</time>
      </trkpt>
      <trkpt lat="43.98468" lon="5.17449">
        <ele>333.71</ele>
        <time>2017-05-29T07:35:44Z</time>
      </trkpt>
      <trkpt lat="43.98452" lon="5.17457">
        <ele>333.23</ele>
        <time>2017-05-29T07:36:03Z</time>
      </trkpt>
      <trkpt lat="43.98436" lon="5.17467">
        <ele>332.75</ele>
        <time>2017-05-29T07:36:20Z</time>
      </trkpt>
      <trkpt lat="43.98414" lon="5.17477">
        <ele>331.31</ele>
        <time>2017-05-29T07:36:41Z</time>
      </trkpt>
      <trkpt lat="43.98393" lon="5.17486">
        <ele>330.35</ele>
        <time>2017-05-29T07:37:02Z</time>
      </trkpt>
      <trkpt lat="43.98372" lon="5.17498">
        <ele>328.43</ele>
        <time>2017-05-29T07:37:24Z</time>
      </trkpt>
      <trkpt lat="43.98354" lon="5.1751">
        <ele>326.5</ele>
        <time>2017-05-29T07:37:44Z</time>
      </trkpt>
      <trkpt lat="43.98339" lon="5.17521">
        <ele>326.02</ele>
        <time>2017-05-29T07:38:03Z</time>
      </trkpt>
      <trkpt lat="43.98333" lon="5.17525">
        <ele>325.54</ele>
        <time>2017-05-29T07:38:16Z</time>
      </trkpt>
      <trkpt lat="43.98317" lon="5.17534">
        <ele>325.06</ele>
        <time>2017-05-29T07:38:34Z</time>
      </trkpt>
      <trkpt lat="43.98298" lon="5.17542">
        <ele>324.58</ele>
        <time>2017-05-29T07:38:53Z</time>
      </trkpt>
      <trkpt lat="43.98279" lon="5.17552">
        <ele>323.62</ele>
        <time>2017-05-29T07:39:13Z</time>
      </trkpt>
      <trkpt lat="43.98274" lon="5.17561">
        <ele>323.62</ele>
        <time>2017-05-29T07:39:22Z</time>
      </trkpt>
      <trkpt lat="43.98264" lon="5.17585">
        <ele>323.14</ele>
        <time>2017-05-29T07:39:41Z</time>
      </trkpt>
      <trkpt lat="43.98266" lon="5.17588">
        <ele>322.66</ele>
        <time>2017-05-29T07:39:53Z</time>
      </trkpt>
      <trkpt lat="43.98273" lon="5.17597">
        <ele>322.66</ele>
        <time>2017-05-29T07:40:10Z</time>
      </trkpt>
      <trkpt lat="43.98264" lon="5.17592">
        <ele>322.66</ele>
        <time>2017-05-29T07:40:26Z</time>
      </trkpt>
      <trkpt lat="43.98254" lon="5.17604">
        <ele>322.66</ele>
        <time>2017-05-29T07:40:43Z</time>
      </trkpt>
      <trkpt lat="43.98246" lon="5.17614">
        <ele>322.66</ele>
        <time>2017-05-29T07:41:00Z</time>
      </trkpt>
      <trkpt lat="43.98244" lon="5.17613">
        <ele>322.18</ele>
        <time>2017-05-29T07:41:23Z</time>
      </trkpt>
      <trkpt lat="43.98236" lon="5.17599">
        <ele>320.26</ele>
        <time>2017-05-29T07:41:41Z</time>
      </trkpt>
      <trkpt lat="43.98239" lon="5.17581">
        <ele>319.78</ele>
        <time>2017-05-29T07:41:57Z</time>
      </trkpt>
      <trkpt lat="43.98235" lon="5.17567">
        <ele>319.78</ele>
        <time>2017-05-29T07:42:15Z</time>
      </trkpt>
      <trkpt lat="43.98227" lon="5.17551">
        <ele>322.18</ele>
        <time>2017-05-29T07:42:32Z</time>
      </trkpt>
      <trkpt lat="43.98218" lon="5.17539">
        <ele>324.58</ele>
        <time>2017-05-29T07:42:49Z</time>
      </trkpt>
      <trkpt lat="43.98212" lon="5.17526">
        <ele>326.5</ele>
        <time>2017-05-29T07:43:08Z</time>
      </trkpt>
      <trkpt lat="43.98206" lon="5.17516">
        <ele>329.39</ele>
        <time>2017-05-29T07:43:24Z</time>
      </trkpt>
      <trkpt lat="43.982" lon="5.17509">
        <ele>330.83</ele>
        <time>2017-05-29T07:43:38Z</time>
      </trkpt>
      <trkpt lat="43.98189" lon="5.175">
        <ele>332.75</ele>
        <time>2017-05-29T07:43:56Z</time>
      </trkpt>
      <trkpt lat="43.98179" lon="5.17499">
        <ele>334.68</ele>
        <time>2017-05-29T07:44:12Z</time>
      </trkpt>
      <trkpt lat="43.98168" lon="5.17503">
        <ele>337.08</ele>
        <time>2017-05-29T07:44:28Z</time>
      </trkpt>
      <trkpt lat="43.98157" lon="5.175">
        <ele>339</ele>
        <time>2017-05-29T07:44:43Z</time>
      </trkpt>
      <trkpt lat="43.98147" lon="5.17501">
        <ele>341.89</ele>
        <time>2017-05-29T07:45:01Z</time>
      </trkpt>
      <trkpt lat="43.98138" lon="5.17501">
        <ele>344.29</ele>
        <time>2017-05-29T07:45:16Z</time>
      </trkpt>
      <trkpt lat="43.9813" lon="5.17498">
        <ele>345.73</ele>
        <time>2017-05-29T07:45:31Z</time>
      </trkpt>
      <trkpt lat="43.9812" lon="5.17492">
        <ele>347.17</ele>
        <time>2017-05-29T07:45:45Z</time>
      </trkpt>
      <trkpt lat="43.98109" lon="5.17486">
        <ele>348.62</ele>
        <time>2017-05-29T07:46:00Z</time>
      </trkpt>
      <trkpt lat="43.98098" lon="5.17478">
        <ele>350.54</ele>
        <time>2017-05-29T07:46:18Z</time>
      </trkpt>
      <trkpt lat="43.98087" lon="5.17473">
        <ele>351.5</ele>
        <time>2017-05-29T07:46:34Z</time>
      </trkpt>
      <trkpt lat="43.98077" lon="5.17466">
        <ele>352.46</ele>
        <time>2017-05-29T07:46:49Z</time>
      </trkpt>
      <trkpt lat="43.98076" lon="5.17463">
        <ele>351.98</ele>
        <time>2017-05-29T07:47:13Z</time>
      </trkpt>
      <trkpt lat="43.98079" lon="5.17462">
        <ele>351.98</ele>
        <time>2017-05-29T07:47:35Z</time>
      </trkpt>
      <trkpt lat="43.9808" lon="5.1746">
        <ele>351.98</ele>
        <time>2017-05-29T07:48:02Z</time>
      </trkpt>
      <trkpt lat="43.98081" lon="5.1746">
        <ele>351.98</ele>
        <time>2017-05-29T07:48:32Z</time>
      </trkpt>
      <trkpt lat="43.98079" lon="5.17458">
        <ele>351.98</ele>
        <time>2017-05-29T07:48:55Z</time>
      </trkpt>
      <trkpt lat="43.98079" lon="5.17459">
        <ele>351.98</ele>
        <time>2017-05-29T07:49:22Z</time>
      </trkpt>
      <trkpt lat="43.98077" lon="5.17461">
        <ele>351.98</ele>
        <time>2017-05-29T07:49:50Z</time>
      </trkpt>
      <trkpt lat="43.98077" lon="5.17459">
        <ele>351.98</ele>
        <time>2017-05-29T07:50:22Z</time>
      </trkpt>
      <trkpt lat="43.98076" lon="5.17458">
        <ele>351.98</ele>
        <time>2017-05-29T07:50:44Z</time>
      </trkpt>
      <trkpt lat="43.98069" lon="5.17453">
        <ele>353.9</ele>
        <time>2017-05-29T07:51:04Z</time>
      </trkpt>
      <trkpt lat="43.98062" lon="5.17444">
        <ele>355.34</ele>
        <time>2017-05-29T07:51:20Z</time>
      </trkpt>
      <trkpt lat="43.98057" lon="5.17437">
        <ele>356.79</ele>
        <time>2017-05-29T07:51:35Z</time>
      </trkpt>
      <trkpt lat="43.98053" lon="5.17431">
        <ele>356.31</ele>
        <time>2017-05-29T07:51:48Z</time>
      </trkpt>
      <trkpt lat="43.98044" lon="5.17427">
        <ele>358.71</ele>
        <time>2017-05-29T07:52:07Z</time>
      </trkpt>
      <trkpt lat="43.98038" lon="5.17417">
        <ele>361.11</ele>
        <time>2017-05-29T07:52:25Z</time>
      </trkpt>
      <trkpt lat="43.98036" lon="5.17405">
        <ele>362.07</ele>
        <time>2017-05-29T07:52:44Z</time>
      </trkpt>
      <trkpt lat="43.98035" lon="5.17398">
        <ele>362.07</ele>
        <time>2017-05-29T07:53:07Z</time>
      </trkpt>
      <trkpt lat="43.98031" lon="5.17387">
        <ele>362.07</ele>
        <time>2017-05-29T07:53:21Z</time>
      </trkpt>
      <trkpt lat="43.98025" lon="5.17374">
        <ele>363.52</ele>
        <time>2017-05-29T07:53:38Z</time>
      </trkpt>
      <trkpt lat="43.98019" lon="5.17369">
        <ele>364.96</ele>
        <time>2017-05-29T07:53:52Z</time>
      </trkpt>
      <trkpt lat="43.98009" lon="5.17359">
        <ele>366.88</ele>
        <time>2017-05-29T07:54:09Z</time>
      </trkpt>
      <trkpt lat="43.98003" lon="5.17348">
        <ele>368.32</ele>
        <time>2017-05-29T07:54:24Z</time>
      </trkpt>
      <trkpt lat="43.97994" lon="5.17333">
        <ele>369.28</ele>
        <time>2017-05-29T07:54:42Z</time>
      </trkpt>
      <trkpt lat="43.97988" lon="5.17318">
        <ele>370.73</ele>
        <time>2017-05-29T07:54:57Z</time>
      </trkpt>
      <trkpt lat="43.97983" lon="5.17305">
        <ele>371.69</ele>
        <time>2017-05-29T07:55:12Z</time>
      </trkpt>
      <trkpt lat="43.97978" lon="5.17288">
        <ele>372.17</ele>
        <time>2017-05-29T07:55:29Z</time>
      </trkpt>
      <trkpt lat="43.97971" lon="5.17277">
        <ele>373.13</ele>
        <time>2017-05-29T07:55:46Z</time>
      </trkpt>
      <trkpt lat="43.97964" lon="5.17267">
        <ele>374.09</ele>
        <time>2017-05-29T07:56:00Z</time>
      </trkpt>
      <trkpt lat="43.97959" lon="5.17258">
        <ele>375.53</ele>
        <time>2017-05-29T07:56:13Z</time>
      </trkpt>
      <trkpt lat="43.97955" lon="5.17251">
        <ele>375.53</ele>
        <time>2017-05-29T07:56:36Z</time>
      </trkpt>
      <trkpt lat="43.97948" lon="5.17246">
        <ele>376.97</ele>
        <time>2017-05-29T07:56:51Z</time>
      </trkpt>
      <trkpt lat="43.97941" lon="5.1724">
        <ele>378.9</ele>
        <time>2017-05-29T07:57:06Z</time>
      </trkpt>
      <trkpt lat="43.97934" lon="5.17231">
        <ele>380.34</ele>
        <time>2017-05-29T07:57:20Z</time>
      </trkpt>
      <trkpt lat="43.97929" lon="5.17227">
        <ele>382.26</ele>
        <time>2017-05-29T07:57:37Z</time>
      </trkpt>
      <trkpt lat="43.97921" lon="5.17221">
        <ele>384.18</ele>
        <time>2017-05-29T07:57:50Z</time>
      </trkpt>
      <trkpt lat="43.97915" lon="5.17215">
        <ele>387.07</ele>
        <time>2017-05-29T07:58:04Z</time>
      </trkpt>
      <trkpt lat="43.97907" lon="5.17209">
        <ele>389.47</ele>
        <time>2017-05-29T07:58:18Z</time>
      </trkpt>
      <trkpt lat="43.97899" lon="5.17203">
        <ele>390.91</ele>
        <time>2017-05-29T07:58:32Z</time>
      </trkpt>
      <trkpt lat="43.97891" lon="5.17196">
        <ele>392.36</ele>
        <time>2017-05-29T07:58:48Z</time>
      </trkpt>
      <trkpt lat="43.97878" lon="5.1719">
        <ele>392.84</ele>
        <time>2017-05-29T07:59:04Z</time>
      </trkpt>
      <trkpt lat="43.97865" lon="5.17195">
        <ele>394.76</ele>
        <time>2017-05-29T07:59:21Z</time>
      </trkpt>
      <trkpt lat="43.97855" lon="5.17199">
        <ele>396.68</ele>
        <time>2017-05-29T07:59:36Z</time>
      </trkpt>
      <trkpt lat="43.97849" lon="5.17203">
        <ele>398.6</ele>
        <time>2017-05-29T07:59:50Z</time>
      </trkpt>
      <trkpt lat="43.97842" lon="5.17204">
        <ele>400.53</ele>
        <time>2017-05-29T08:00:05Z</time>
      </trkpt>
      <trkpt lat="43.97831" lon="5.17201">
        <ele>401.97</ele>
        <time>2017-05-29T08:00:19Z</time>
      </trkpt>
      <trkpt lat="43.97823" lon="5.17192">
        <ele>402.45</ele>
        <time>2017-05-29T08:00:34Z</time>
      </trkpt>
      <trkpt lat="43.9782" lon="5.1719">
        <ele>402.93</ele>
        <time>2017-05-29T08:00:56Z</time>
      </trkpt>
      <trkpt lat="43.97817" lon="5.17192">
        <ele>402.93</ele>
        <time>2017-05-29T08:01:18Z</time>
      </trkpt>
      <trkpt lat="43.97817" lon="5.17192">
        <ele>403.41</ele>
        <time>2017-05-29T08:01:40Z</time>
      </trkpt>
      <trkpt lat="43.9782" lon="5.1719">
        <ele>403.41</ele>
        <time>2017-05-29T08:02:02Z</time>
      </trkpt>
      <trkpt lat="43.9782" lon="5.17191">
        <ele>403.41</ele>
        <time>2017-05-29T08:02:23Z</time>
      </trkpt>
      <trkpt lat="43.97817" lon="5.1719">
        <ele>403.41</ele>
        <time>2017-05-29T08:02:40Z</time>
      </trkpt>
      <trkpt lat="43.97814" lon="5.1719">
        <ele>403.41</ele>
        <time>2017-05-29T08:03:04Z</time>
      </trkpt>
      <trkpt lat="43.97805" lon="5.17186">
        <ele>403.41</ele>
        <time>2017-05-29T08:03:19Z</time>
      </trkpt>
      <trkpt lat="43.97799" lon="5.17187">
        <ele>404.85</ele>
        <time>2017-05-29T08:03:28Z</time>
      </trkpt>
      <trkpt lat="43.97792" lon="5.1719">
        <ele>405.81</ele>
        <time>2017-05-29T08:03:42Z</time>
      </trkpt>
      <trkpt lat="43.97783" lon="5.17197">
        <ele>405.81</ele>
        <time>2017-05-29T08:03:58Z</time>
      </trkpt>
      <trkpt lat="43.97775" lon="5.172">
        <ele>407.74</ele>
        <time>2017-05-29T08:04:11Z</time>
      </trkpt>
      <trkpt lat="43.97766" lon="5.17197">
        <ele>408.22</ele>
        <time>2017-05-29T08:04:24Z</time>
      </trkpt>
      <trkpt lat="43.97755" lon="5.172">
        <ele>409.66</ele>
        <time>2017-05-29T08:04:38Z</time>
      </trkpt>
      <trkpt lat="43.97741" lon="5.17207">
        <ele>409.66</ele>
        <time>2017-05-29T08:04:56Z</time>
      </trkpt>
      <trkpt lat="43.9773" lon="5.17214">
        <ele>410.14</ele>
        <time>2017-05-29T08:05:12Z</time>
      </trkpt>
      <trkpt lat="43.9772" lon="5.1723">
        <ele>410.14</ele>
        <time>2017-05-29T08:05:29Z</time>
      </trkpt>
      <trkpt lat="43.97711" lon="5.17251">
        <ele>410.14</ele>
        <time>2017-05-29T08:05:47Z</time>
      </trkpt>
      <trkpt lat="43.97711" lon="5.17265">
        <ele>408.7</ele>
        <time>2017-05-29T08:06:00Z</time>
      </trkpt>
      <trkpt lat="43.97711" lon="5.17271">
        <ele>407.74</ele>
        <time>2017-05-29T08:06:15Z</time>
      </trkpt>
      <trkpt lat="43.97714" lon="5.17279">
        <ele>407.26</ele>
        <time>2017-05-29T08:06:28Z</time>
      </trkpt>
      <trkpt lat="43.97717" lon="5.17285">
        <ele>406.29</ele>
        <time>2017-05-29T08:06:40Z</time>
      </trkpt>
      <trkpt lat="43.9772" lon="5.17304">
        <ele>404.85</ele>
        <time>2017-05-29T08:06:57Z</time>
      </trkpt>
      <trkpt lat="43.97713" lon="5.1731">
        <ele>405.33</ele>
        <time>2017-05-29T08:07:11Z</time>
      </trkpt>
      <trkpt lat="43.9771" lon="5.17317">
        <ele>404.85</ele>
        <time>2017-05-29T08:07:26Z</time>
      </trkpt>
      <trkpt lat="43.97707" lon="5.17325">
        <ele>406.77</ele>
        <time>2017-05-29T08:07:37Z</time>
      </trkpt>
      <trkpt lat="43.97705" lon="5.17339">
        <ele>406.77</ele>
        <time>2017-05-29T08:07:51Z</time>
      </trkpt>
      <trkpt lat="43.97693" lon="5.17339">
        <ele>406.77</ele>
        <time>2017-05-29T08:08:06Z</time>
      </trkpt>
      <trkpt lat="43.97685" lon="5.17344">
        <ele>407.74</ele>
        <time>2017-05-29T08:08:19Z</time>
      </trkpt>
      <trkpt lat="43.97675" lon="5.17351">
        <ele>409.18</ele>
        <time>2017-05-29T08:08:35Z</time>
      </trkpt>
      <trkpt lat="43.97665" lon="5.17357">
        <ele>410.14</ele>
        <time>2017-05-29T08:08:48Z</time>
      </trkpt>
      <trkpt lat="43.97656" lon="5.17361">
        <ele>411.1</ele>
        <time>2017-05-29T08:09:03Z</time>
      </trkpt>
      <trkpt lat="43.97643" lon="5.17358">
        <ele>412.54</ele>
        <time>2017-05-29T08:09:18Z</time>
      </trkpt>
      <trkpt lat="43.97631" lon="5.17349">
        <ele>413.02</ele>
        <time>2017-05-29T08:09:35Z</time>
      </trkpt>
      <trkpt lat="43.97619" lon="5.17343">
        <ele>413.98</ele>
        <time>2017-05-29T08:09:50Z</time>
      </trkpt>
      <trkpt lat="43.97614" lon="5.17338">
        <ele>414.47</ele>
        <time>2017-05-29T08:10:07Z</time>
      </trkpt>
      <trkpt lat="43.97616" lon="5.17339">
        <ele>414.95</ele>
        <time>2017-05-29T08:10:30Z</time>
      </trkpt>
      <trkpt lat="43.97616" lon="5.1734">
        <ele>414.95</ele>
        <time>2017-05-29T08:10:47Z</time>
      </trkpt>
      <trkpt lat="43.97617" lon="5.17336">
        <ele>414.95</ele>
        <time>2017-05-29T08:11:14Z</time>
      </trkpt>
      <trkpt lat="43.97619" lon="5.17337">
        <ele>414.95</ele>
        <time>2017-05-29T08:11:48Z</time>
      </trkpt>
      <trkpt lat="43.97617" lon="5.17333">
        <ele>414.95</ele>
        <time>2017-05-29T08:12:08Z</time>
      </trkpt>
      <trkpt lat="43.97618" lon="5.17335">
        <ele>414.95</ele>
        <time>2017-05-29T08:12:31Z</time>
      </trkpt>
      <trkpt lat="43.97616" lon="5.17336">
        <ele>415.43</ele>
        <time>2017-05-29T08:13:00Z</time>
      </trkpt>
      <trkpt lat="43.97606" lon="5.17334">
        <ele>415.43</ele>
        <time>2017-05-29T08:13:15Z</time>
      </trkpt>
      <trkpt lat="43.97597" lon="5.17338">
        <ele>416.87</ele>
        <time>2017-05-29T08:13:29Z</time>
      </trkpt>
      <trkpt lat="43.97587" lon="5.17333">
        <ele>419.27</ele>
        <time>2017-05-29T08:13:44Z</time>
      </trkpt>
      <trkpt lat="43.97581" lon="5.17325">
        <ele>421.19</ele>
        <time>2017-05-29T08:13:59Z</time>
      </trkpt>
      <trkpt lat="43.97572" lon="5.17314">
        <ele>422.64</ele>
        <time>2017-05-29T08:14:15Z</time>
      </trkpt>
      <trkpt lat="43.97563" lon="5.17309">
        <ele>422.64</ele>
        <time>2017-05-29T08:14:31Z</time>
      </trkpt>
      <trkpt lat="43.97555" lon="5.17305">
        <ele>422.64</ele>
        <time>2017-05-29T08:14:47Z</time>
      </trkpt>
      <trkpt lat="43.97545" lon="5.17296">
        <ele>422.64</ele>
        <time>2017-05-29T08:15:03Z</time>
      </trkpt>
      <trkpt lat="43.97536" lon="5.17296">
        <ele>423.6</ele>
        <time>2017-05-29T08:15:17Z</time>
      </trkpt>
      <trkpt lat="43.97522" lon="5.17292">
        <ele>424.08</ele>
        <time>2017-05-29T08:15:33Z</time>
      </trkpt>
      <trkpt lat="43.97509" lon="5.17287">
        <ele>424.08</ele>
        <time>2017-05-29T08:15:51Z</time>
      </trkpt>
      <trkpt lat="43.97496" lon="5.17287">
        <ele>424.08</ele>
        <time>2017-05-29T08:16:05Z</time>
      </trkpt>
      <trkpt lat="43.97487" lon="5.17286">
        <ele>424.56</ele>
        <time>2017-05-29T08:16:20Z</time>
      </trkpt>
      <trkpt lat="43.97479" lon="5.17283">
        <ele>425.52</ele>
        <time>2017-05-29T08:16:33Z</time>
      </trkpt>
      <trkpt lat="43.97469" lon="5.17275">
        <ele>425.52</ele>
        <time>2017-05-29T08:16:47Z</time>
      </trkpt>
      <trkpt lat="43.97458" lon="5.17269">
        <ele>426</ele>
        <time>2017-05-29T08:17:01Z</time>
      </trkpt>
      <trkpt lat="43.9745" lon="5.17268">
        <ele>426.48</ele>
        <time>2017-05-29T08:17:16Z</time>
      </trkpt>
      <trkpt lat="43.9744" lon="5.17261">
        <ele>426.48</ele>
        <time>2017-05-29T08:17:31Z</time>
      </trkpt>
      <trkpt lat="43.9743" lon="5.17257">
        <ele>427.44</ele>
        <time>2017-05-29T08:17:46Z</time>
      </trkpt>
      <trkpt lat="43.97416" lon="5.17255">
        <ele>427.44</ele>
        <time>2017-05-29T08:18:01Z</time>
      </trkpt>
      <trkpt lat="43.97405" lon="5.17248">
        <ele>427.92</ele>
        <time>2017-05-29T08:18:15Z</time>
      </trkpt>
      <trkpt lat="43.97397" lon="5.17244">
        <ele>429.85</ele>
        <time>2017-05-29T08:18:29Z</time>
      </trkpt>
      <trkpt lat="43.97389" lon="5.17244">
        <ele>431.77</ele>
        <time>2017-05-29T08:18:43Z</time>
      </trkpt>
      <trkpt lat="43.97381" lon="5.17246">
        <ele>433.69</ele>
        <time>2017-05-29T08:18:59Z</time>
      </trkpt>
      <trkpt lat="43.97374" lon="5.1725">
        <ele>434.17</ele>
        <time>2017-05-29T08:19:17Z</time>
      </trkpt>
      <trkpt lat="43.97367" lon="5.17253">
        <ele>434.17</ele>
        <time>2017-05-29T08:19:29Z</time>
      </trkpt>
      <trkpt lat="43.9736" lon="5.17255">
        <ele>432.73</ele>
        <time>2017-05-29T08:19:43Z</time>
      </trkpt>
      <trkpt lat="43.97354" lon="5.17264">
        <ele>432.73</ele>
        <time>2017-05-29T08:19:59Z</time>
      </trkpt>
      <trkpt lat="43.97345" lon="5.17273">
        <ele>432.73</ele>
        <time>2017-05-29T08:20:15Z</time>
      </trkpt>
      <trkpt lat="43.97337" lon="5.17279">
        <ele>432.73</ele>
        <time>2017-05-29T08:20:28Z</time>
      </trkpt>
      <trkpt lat="43.97332" lon="5.17283">
        <ele>433.69</ele>
        <time>2017-05-29T08:20:40Z</time>
      </trkpt>
      <trkpt lat="43.97328" lon="5.17286">
        <ele>435.13</ele>
        <time>2017-05-29T08:20:57Z</time>
      </trkpt>
      <trkpt lat="43.97324" lon="5.17291">
        <ele>436.58</ele>
        <time>2017-05-29T08:21:12Z</time>
      </trkpt>
      <trkpt lat="43.97316" lon="5.1729">
        <ele>438.5</ele>
        <time>2017-05-29T08:21:28Z</time>
      </trkpt>
      <trkpt lat="43.97312" lon="5.17291">
        <ele>439.94</ele>
        <time>2017-05-29T08:21:46Z</time>
      </trkpt>
      <trkpt lat="43.97309" lon="5.17295">
        <ele>442.34</ele>
        <time>2017-05-29T08:22:00Z</time>
      </trkpt>
      <trkpt lat="43.973" lon="5.1729">
        <ele>444.27</ele>
        <time>2017-05-29T08:22:14Z</time>
      </trkpt>
      <trkpt lat="43.97296" lon="5.17285">
        <ele>447.63</ele>
        <time>2017-05-29T08:22:21Z</time>
      </trkpt>
      <trkpt lat="43.97299" lon="5.17286">
        <ele>444.27</ele>
        <time>2017-05-29T08:22:32Z</time>
      </trkpt>
      <trkpt lat="43.97295" lon="5.17278">
        <ele>444.75</ele>
        <time>2017-05-29T08:22:47Z</time>
      </trkpt>
      <trkpt lat="43.97292" lon="5.17262">
        <ele>444.75</ele>
        <time>2017-05-29T08:23:07Z</time>
      </trkpt>
      <trkpt lat="43.97291" lon="5.1726">
        <ele>444.75</ele>
        <time>2017-05-29T08:23:33Z</time>
      </trkpt>
      <trkpt lat="43.97293" lon="5.1726">
        <ele>445.23</ele>
        <time>2017-05-29T08:23:58Z</time>
      </trkpt>
      <trkpt lat="43.97291" lon="5.17246">
        <ele>445.23</ele>
        <time>2017-05-29T08:24:24Z</time>
      </trkpt>
      <trkpt lat="43.97287" lon="5.17268">
        <ele>445.23</ele>
        <time>2017-05-29T08:24:40Z</time>
      </trkpt>
      <trkpt lat="43.97294" lon="5.17275">
        <ele>445.71</ele>
        <time>2017-05-29T08:25:02Z</time>
      </trkpt>
      <trkpt lat="43.97298" lon="5.17271">
        <ele>445.71</ele>
        <time>2017-05-29T08:25:25Z</time>
      </trkpt>
      <trkpt lat="43.97299" lon="5.17276">
        <ele>445.71</ele>
        <time>2017-05-29T08:25:50Z</time>
      </trkpt>
      <trkpt lat="43.97295" lon="5.17281">
        <ele>446.19</ele>
        <time>2017-05-29T08:26:13Z</time>
      </trkpt>
      <trkpt lat="43.97296" lon="5.17277">
        <ele>444.27</ele>
        <time>2017-05-29T08:26:37Z</time>
      </trkpt>
      <trkpt lat="43.97296" lon="5.17277">
        <ele>450.03</ele>
        <time>2017-05-29T08:26:38Z</time>
      </trkpt>
      <trkpt lat="43.97297" lon="5.17277">
        <ele>446.67</ele>
        <time>2017-05-29T08:26:39Z</time>
      </trkpt>
      <trkpt lat="43.97298" lon="5.1728">
        <ele>447.15</ele>
        <time>2017-05-29T08:27:01Z</time>
      </trkpt>
      <trkpt lat="43.973" lon="5.17281">
        <ele>446.67</ele>
        <time>2017-05-29T08:27:25Z</time>
      </trkpt>
      <trkpt lat="43.97297" lon="5.17282">
        <ele>446.67</ele>
        <time>2017-05-29T08:27:50Z</time>
      </trkpt>
      <trkpt lat="43.97299" lon="5.17282">
        <ele>446.67</ele>
        <time>2017-05-29T08:28:18Z</time>
      </trkpt>
      <trkpt lat="43.97296" lon="5.17279">
        <ele>447.15</ele>
        <time>2017-05-29T08:28:48Z</time>
      </trkpt>
      <trkpt lat="43.97296" lon="5.17283">
        <ele>447.15</ele>
        <time>2017-05-29T08:29:17Z</time>
      </trkpt>
      <trkpt lat="43.97295" lon="5.17289">
        <ele>447.15</ele>
        <time>2017-05-29T08:29:40Z</time>
      </trkpt>
      <trkpt lat="43.97293" lon="5.17289">
        <ele>447.15</ele>
        <time>2017-05-29T08:30:16Z</time>
      </trkpt>
      <trkpt lat="43.9729" lon="5.17289">
        <ele>447.15</ele>
        <time>2017-05-29T08:30:42Z</time>
      </trkpt>
      <trkpt lat="43.97289" lon="5.17292">
        <ele>448.59</ele>
        <time>2017-05-29T08:30:48Z</time>
      </trkpt>
      <trkpt lat="43.97288" lon="5.17299">
        <ele>451</ele>
        <time>2017-05-29T08:31:05Z</time>
      </trkpt>
      <trkpt lat="43.97285" lon="5.17307">
        <ele>452.44</ele>
        <time>2017-05-29T08:31:20Z</time>
      </trkpt>
      <trkpt lat="43.97283" lon="5.17318">
        <ele>454.84</ele>
        <time>2017-05-29T08:31:36Z</time>
      </trkpt>
      <trkpt lat="43.9728" lon="5.17324">
        <ele>457.24</ele>
        <time>2017-05-29T08:31:50Z</time>
      </trkpt>
      <trkpt lat="43.97276" lon="5.17333">
        <ele>459.17</ele>
        <time>2017-05-29T08:32:07Z</time>
      </trkpt>
      <trkpt lat="43.97272" lon="5.17341">
        <ele>461.09</ele>
        <time>2017-05-29T08:32:24Z</time>
      </trkpt>
      <trkpt lat="43.97268" lon="5.17346">
        <ele>463.01</ele>
        <time>2017-05-29T08:32:42Z</time>
      </trkpt>
      <trkpt lat="43.97263" lon="5.17351">
        <ele>464.93</ele>
        <time>2017-05-29T08:32:57Z</time>
      </trkpt>
      <trkpt lat="43.97262" lon="5.17355">
        <ele>466.38</ele>
        <time>2017-05-29T08:33:13Z</time>
      </trkpt>
      <trkpt lat="43.97261" lon="5.17358">
        <ele>468.78</ele>
        <time>2017-05-29T08:33:32Z</time>
      </trkpt>
      <trkpt lat="43.97264" lon="5.17362">
        <ele>469.74</ele>
        <time>2017-05-29T08:33:51Z</time>
      </trkpt>
      <trkpt lat="43.97265" lon="5.17364">
        <ele>470.7</ele>
        <time>2017-05-29T08:34:05Z</time>
      </trkpt>
      <trkpt lat="43.97265" lon="5.17364">
        <ele>470.7</ele>
        <time>2017-05-29T08:34:38Z</time>
      </trkpt>
      <trkpt lat="43.97266" lon="5.17365">
        <ele>471.66</ele>
        <time>2017-05-29T08:34:52Z</time>
      </trkpt>
      <trkpt lat="43.97262" lon="5.17362">
        <ele>472.63</ele>
        <time>2017-05-29T08:35:10Z</time>
      </trkpt>
      <trkpt lat="43.97257" lon="5.17358">
        <ele>472.63</ele>
        <time>2017-05-29T08:35:33Z</time>
      </trkpt>
      <trkpt lat="43.97254" lon="5.17356">
        <ele>473.11</ele>
        <time>2017-05-29T08:35:46Z</time>
      </trkpt>
      <trkpt lat="43.97253" lon="5.17357">
        <ele>473.11</ele>
        <time>2017-05-29T08:36:07Z</time>
      </trkpt>
      <trkpt lat="43.97253" lon="5.17356">
        <ele>468.78</ele>
        <time>2017-05-29T08:36:16Z</time>
      </trkpt>
      <trkpt lat="43.97253" lon="5.17356">
        <ele>476.47</ele>
        <time>2017-05-29T08:36:17Z</time>
      </trkpt>
      <trkpt lat="43.97252" lon="5.17357">
        <ele>473.11</ele>
        <time>2017-05-29T08:36:18Z</time>
      </trkpt>
      <trkpt lat="43.97253" lon="5.17354">
        <ele>473.11</ele>
        <time>2017-05-29T08:36:39Z</time>
      </trkpt>
      <trkpt lat="43.97255" lon="5.17355">
        <ele>473.11</ele>
        <time>2017-05-29T08:37:00Z</time>
      </trkpt>
      <trkpt lat="43.97246" lon="5.17358">
        <ele>473.11</ele>
        <time>2017-05-29T08:37:15Z</time>
      </trkpt>
      <trkpt lat="43.97242" lon="5.17362">
        <ele>474.07</ele>
        <time>2017-05-29T08:37:22Z</time>
      </trkpt>
      <trkpt lat="43.97235" lon="5.17371">
        <ele>475.99</ele>
        <time>2017-05-29T08:37:38Z</time>
      </trkpt>
      <trkpt lat="43.97225" lon="5.1738">
        <ele>476.95</ele>
        <time>2017-05-29T08:37:54Z</time>
      </trkpt>
      <trkpt lat="43.9721" lon="5.17377">
        <ele>478.87</ele>
        <time>2017-05-29T08:38:09Z</time>
      </trkpt>
      <trkpt lat="43.97199" lon="5.17369">
        <ele>480.8</ele>
        <time>2017-05-29T08:38:25Z</time>
      </trkpt>
      <trkpt lat="43.9719" lon="5.17373">
        <ele>482.24</ele>
        <time>2017-05-29T08:38:42Z</time>
      </trkpt>
      <trkpt lat="43.97177" lon="5.17372">
        <ele>483.68</ele>
        <time>2017-05-29T08:38:57Z</time>
      </trkpt>
      <trkpt lat="43.97169" lon="5.17361">
        <ele>486.08</ele>
        <time>2017-05-29T08:39:12Z</time>
      </trkpt>
      <trkpt lat="43.97163" lon="5.17355">
        <ele>487.53</ele>
        <time>2017-05-29T08:39:27Z</time>
      </trkpt>
      <trkpt lat="43.97157" lon="5.17347">
        <ele>489.45</ele>
        <time>2017-05-29T08:39:42Z</time>
      </trkpt>
      <trkpt lat="43.97149" lon="5.17343">
        <ele>491.85</ele>
        <time>2017-05-29T08:39:58Z</time>
      </trkpt>
      <trkpt lat="43.97146" lon="5.17343">
        <ele>492.33</ele>
        <time>2017-05-29T08:40:15Z</time>
      </trkpt>
      <trkpt lat="43.97138" lon="5.17341">
        <ele>494.74</ele>
        <time>2017-05-29T08:40:30Z</time>
      </trkpt>
      <trkpt lat="43.97133" lon="5.17343">
        <ele>497.14</ele>
        <time>2017-05-29T08:40:46Z</time>
      </trkpt>
      <trkpt lat="43.97131" lon="5.17345">
        <ele>497.62</ele>
        <time>2017-05-29T08:41:05Z</time>
      </trkpt>
      <trkpt lat="43.97128" lon="5.17346">
        <ele>500.5</ele>
        <time>2017-05-29T08:41:22Z</time>
      </trkpt>
      <trkpt lat="43.97128" lon="5.17351">
        <ele>501.95</ele>
        <time>2017-05-29T08:41:36Z</time>
      </trkpt>
      <trkpt lat="43.97123" lon="5.17354">
        <ele>504.35</ele>
        <time>2017-05-29T08:41:53Z</time>
      </trkpt>
      <trkpt lat="43.9712" lon="5.17356">
        <ele>506.75</ele>
        <time>2017-05-29T08:42:06Z</time>
      </trkpt>
      <trkpt lat="43.97117" lon="5.17359">
        <ele>508.19</ele>
        <time>2017-05-29T08:42:20Z</time>
      </trkpt>
      <trkpt lat="43.97117" lon="5.17356">
        <ele>509.16</ele>
        <time>2017-05-29T08:42:34Z</time>
      </trkpt>
      <trkpt lat="43.97118" lon="5.17361">
        <ele>509.64</ele>
        <time>2017-05-29T08:42:50Z</time>
      </trkpt>
      <trkpt lat="43.97118" lon="5.1736">
        <ele>510.6</ele>
        <time>2017-05-29T08:43:06Z</time>
      </trkpt>
      <trkpt lat="43.97118" lon="5.1736">
        <ele>509.16</ele>
        <time>2017-05-29T08:43:13Z</time>
      </trkpt>
      <trkpt lat="43.97117" lon="5.17361">
        <ele>509.16</ele>
        <time>2017-05-29T08:43:30Z</time>
      </trkpt>
      <trkpt lat="43.97117" lon="5.17358">
        <ele>509.16</ele>
        <time>2017-05-29T08:43:45Z</time>
      </trkpt>
      <trkpt lat="43.97115" lon="5.17355">
        <ele>509.16</ele>
        <time>2017-05-29T08:43:58Z</time>
      </trkpt>
      <trkpt lat="43.97114" lon="5.17353">
        <ele>509.16</ele>
        <time>2017-05-29T08:44:11Z</time>
      </trkpt>
      <trkpt lat="43.97111" lon="5.17353">
        <ele>508.67</ele>
        <time>2017-05-29T08:44:23Z</time>
      </trkpt>
      <trkpt lat="43.9711" lon="5.17353">
        <ele>507.71</ele>
        <time>2017-05-29T08:44:37Z</time>
      </trkpt>
      <trkpt lat="43.97109" lon="5.17355">
        <ele>507.71</ele>
        <time>2017-05-29T08:45:10Z</time>
      </trkpt>
      <trkpt lat="43.97109" lon="5.17355">
        <ele>507.71</ele>
        <time>2017-05-29T08:45:42Z</time>
      </trkpt>
      <trkpt lat="43.97108" lon="5.17355">
        <ele>507.71</ele>
        <time>2017-05-29T08:46:15Z</time>
      </trkpt>
      <trkpt lat="43.97108" lon="5.17356">
        <ele>507.23</ele>
        <time>2017-05-29T08:46:42Z</time>
      </trkpt>
      <trkpt lat="43.97109" lon="5.17355">
        <ele>507.23</ele>
        <time>2017-05-29T08:47:10Z</time>
      </trkpt>
      <trkpt lat="43.97109" lon="5.17354">
        <ele>508.19</ele>
        <time>2017-05-29T08:47:46Z</time>
      </trkpt>
      <trkpt lat="43.97109" lon="5.17354">
        <ele>508.19</ele>
        <time>2017-05-29T08:47:47Z</time>
      </trkpt>
      <trkpt lat="43.97112" lon="5.17355">
        <ele>507.23</ele>
        <time>2017-05-29T08:48:02Z</time>
      </trkpt>
      <trkpt lat="43.97112" lon="5.17355">
        <ele>507.23</ele>
        <time>2017-05-29T08:48:30Z</time>
      </trkpt>
      <trkpt lat="43.97112" lon="5.17353">
        <ele>507.23</ele>
        <time>2017-05-29T08:49:03Z</time>
      </trkpt>
      <trkpt lat="43.97113" lon="5.1735">
        <ele>507.71</ele>
        <time>2017-05-29T08:49:42Z</time>
      </trkpt>
      <trkpt lat="43.9711" lon="5.1735">
        <ele>507.71</ele>
        <time>2017-05-29T08:50:24Z</time>
      </trkpt>
      <trkpt lat="43.9711" lon="5.17351">
        <ele>507.71</ele>
        <time>2017-05-29T08:50:58Z</time>
      </trkpt>
      <trkpt lat="43.9711" lon="5.17348">
        <ele>508.19</ele>
        <time>2017-05-29T08:51:35Z</time>
      </trkpt>
      <trkpt lat="43.97113" lon="5.17352">
        <ele>509.16</ele>
        <time>2017-05-29T08:52:07Z</time>
      </trkpt>
      <trkpt lat="43.97111" lon="5.17355">
        <ele>509.64</ele>
        <time>2017-05-29T08:52:23Z</time>
      </trkpt>
      <trkpt lat="43.9711" lon="5.17355">
        <ele>510.12</ele>
        <time>2017-05-29T08:52:53Z</time>
      </trkpt>
      <trkpt lat="43.9711" lon="5.17355">
        <ele>510.12</ele>
        <time>2017-05-29T08:53:16Z</time>
      </trkpt>
      <trkpt lat="43.97109" lon="5.17356">
        <ele>509.16</ele>
        <time>2017-05-29T08:53:43Z</time>
      </trkpt>
      <trkpt lat="43.97109" lon="5.17355">
        <ele>508.67</ele>
        <time>2017-05-29T08:54:14Z</time>
      </trkpt>
      <trkpt lat="43.97108" lon="5.17354">
        <ele>509.64</ele>
        <time>2017-05-29T08:54:55Z</time>
      </trkpt>
      <trkpt lat="43.97111" lon="5.17356">
        <ele>509.64</ele>
        <time>2017-05-29T08:55:18Z</time>
      </trkpt>
      <trkpt lat="43.97111" lon="5.17356">
        <ele>509.64</ele>
        <time>2017-05-29T08:55:46Z</time>
      </trkpt>
      <trkpt lat="43.9711" lon="5.17356">
        <ele>509.64</ele>
        <time>2017-05-29T08:56:08Z</time>
      </trkpt>
      <trkpt lat="43.97108" lon="5.17352">
        <ele>509.64</ele>
        <time>2017-05-29T08:56:40Z</time>
      </trkpt>
      <trkpt lat="43.97107" lon="5.17352">
        <ele>510.12</ele>
        <time>2017-05-29T08:57:10Z</time>
      </trkpt>
      <trkpt lat="43.97109" lon="5.17354">
        <ele>510.12</ele>
        <time>2017-05-29T08:57:28Z</time>
      </trkpt>
      <trkpt lat="43.9711" lon="5.17356">
        <ele>510.12</ele>
        <time>2017-05-29T08:57:48Z</time>
      </trkpt>
      <trkpt lat="43.97108" lon="5.17353">
        <ele>508.19</ele>
        <time>2017-05-29T08:58:10Z</time>
      </trkpt>
      <trkpt lat="43.97108" lon="5.17353">
        <ele>511.56</ele>
        <time>2017-05-29T08:58:11Z</time>
      </trkpt>
      <trkpt lat="43.97108" lon="5.17353">
        <ele>509.64</ele>
        <time>2017-05-29T08:58:12Z</time>
      </trkpt>
      <trkpt lat="43.9711" lon="5.17354">
        <ele>509.64</ele>
        <time>2017-05-29T08:58:37Z</time>
      </trkpt>
      <trkpt lat="43.97107" lon="5.17349">
        <ele>506.75</ele>
        <time>2017-05-29T08:58:58Z</time>
      </trkpt>
      <trkpt lat="43.97107" lon="5.17348">
        <ele>510.12</ele>
        <time>2017-05-29T08:58:59Z</time>
      </trkpt>
      <trkpt lat="43.97106" lon="5.17348">
        <ele>514.44</ele>
        <time>2017-05-29T08:59:00Z</time>
      </trkpt>
      <trkpt lat="43.97107" lon="5.1735">
        <ele>509.64</ele>
        <time>2017-05-29T08:59:01Z</time>
      </trkpt>
      <trkpt lat="43.9711" lon="5.17355">
        <ele>505.31</ele>
        <time>2017-05-29T08:59:21Z</time>
      </trkpt>
      <trkpt lat="43.9711" lon="5.17355">
        <ele>512.04</ele>
        <time>2017-05-29T08:59:22Z</time>
      </trkpt>
      <trkpt lat="43.9711" lon="5.17356">
        <ele>511.08</ele>
        <time>2017-05-29T08:59:23Z</time>
      </trkpt>
      <trkpt lat="43.9711" lon="5.17356">
        <ele>509.64</ele>
        <time>2017-05-29T08:59:25Z</time>
      </trkpt>
      <trkpt lat="43.9711" lon="5.17356">
        <ele>510.6</ele>
        <time>2017-05-29T08:59:40Z</time>
      </trkpt>
      <trkpt lat="43.9711" lon="5.17357">
        <ele>510.12</ele>
        <time>2017-05-29T09:00:10Z</time>
      </trkpt>
      <trkpt lat="43.9711" lon="5.17356">
        <ele>505.79</ele>
        <time>2017-05-29T09:00:29Z</time>
      </trkpt>
      <trkpt lat="43.9711" lon="5.17356">
        <ele>512.04</ele>
        <time>2017-05-29T09:00:30Z</time>
      </trkpt>
      <trkpt lat="43.9711" lon="5.17355">
        <ele>509.16</ele>
        <time>2017-05-29T09:00:39Z</time>
      </trkpt>
      <trkpt lat="43.97111" lon="5.17353">
        <ele>512.04</ele>
        <time>2017-05-29T09:00:51Z</time>
      </trkpt>
      <trkpt lat="43.9711" lon="5.17357">
        <ele>510.12</ele>
        <time>2017-05-29T09:01:22Z</time>
      </trkpt>
      <trkpt lat="43.9711" lon="5.17357">
        <ele>510.12</ele>
        <time>2017-05-29T09:01:46Z</time>
      </trkpt>
      <trkpt lat="43.97109" lon="5.17356">
        <ele>510.12</ele>
        <time>2017-05-29T09:02:11Z</time>
      </trkpt>
      <trkpt lat="43.97109" lon="5.17356">
        <ele>510.12</ele>
        <time>2017-05-29T09:02:32Z</time>
      </trkpt>
      <trkpt lat="43.97109" lon="5.17354">
        <ele>510.12</ele>
        <time>2017-05-29T09:02:54Z</time>
      </trkpt>
      <trkpt lat="43.9711" lon="5.17355">
        <ele>511.08</ele>
        <time>2017-05-29T09:03:10Z</time>
      </trkpt>
      <trkpt lat="43.9711" lon="5.17354">
        <ele>507.23</ele>
        <time>2017-05-29T09:03:14Z</time>
      </trkpt>
      <trkpt lat="43.97111" lon="5.17354">
        <ele>513.96</ele>
        <time>2017-05-29T09:03:15Z</time>
      </trkpt>
      <trkpt lat="43.97111" lon="5.17354">
        <ele>510.6</ele>
        <time>2017-05-29T09:03:16Z</time>
      </trkpt>
      <trkpt lat="43.9711" lon="5.17351">
        <ele>510.6</ele>
        <time>2017-05-29T09:03:42Z</time>
      </trkpt>
      <trkpt lat="43.97111" lon="5.17346">
        <ele>510.6</ele>
        <time>2017-05-29T09:04:09Z</time>
      </trkpt>
      <trkpt lat="43.97112" lon="5.17348">
        <ele>510.6</ele>
        <time>2017-05-29T09:04:28Z</time>
      </trkpt>
      <trkpt lat="43.97113" lon="5.17351">
        <ele>510.6</ele>
        <time>2017-05-29T09:04:54Z</time>
      </trkpt>
      <trkpt lat="43.97114" lon="5.17355">
        <ele>510.6</ele>
        <time>2017-05-29T09:05:14Z</time>
      </trkpt>
      <trkpt lat="43.97112" lon="5.17353">
        <ele>510.6</ele>
        <time>2017-05-29T09:05:34Z</time>
      </trkpt>
      <trkpt lat="43.97109" lon="5.1735">
        <ele>509.64</ele>
        <time>2017-05-29T09:05:52Z</time>
      </trkpt>
      <trkpt lat="43.97102" lon="5.17352">
        <ele>508.19</ele>
        <time>2017-05-29T09:06:07Z</time>
      </trkpt>
      <trkpt lat="43.97095" lon="5.17353">
        <ele>506.75</ele>
        <time>2017-05-29T09:06:23Z</time>
      </trkpt>
      <trkpt lat="43.97088" lon="5.17358">
        <ele>506.75</ele>
        <time>2017-05-29T09:06:37Z</time>
      </trkpt>
      <trkpt lat="43.97081" lon="5.17368">
        <ele>506.75</ele>
        <time>2017-05-29T09:06:51Z</time>
      </trkpt>
      <trkpt lat="43.9708" lon="5.1737">
        <ele>507.71</ele>
        <time>2017-05-29T09:06:54Z</time>
      </trkpt>
      <trkpt lat="43.97076" lon="5.17376">
        <ele>510.12</ele>
        <time>2017-05-29T09:07:07Z</time>
      </trkpt>
      <trkpt lat="43.97069" lon="5.17383">
        <ele>512.04</ele>
        <time>2017-05-29T09:07:23Z</time>
      </trkpt>
      <trkpt lat="43.97062" lon="5.17389">
        <ele>514.44</ele>
        <time>2017-05-29T09:07:36Z</time>
      </trkpt>
      <trkpt lat="43.97063" lon="5.17397">
        <ele>516.37</ele>
        <time>2017-05-29T09:07:51Z</time>
      </trkpt>
      <trkpt lat="43.97063" lon="5.17402">
        <ele>518.77</ele>
        <time>2017-05-29T09:08:08Z</time>
      </trkpt>
      <trkpt lat="43.97059" lon="5.17406">
        <ele>520.69</ele>
        <time>2017-05-29T09:08:26Z</time>
      </trkpt>
      <trkpt lat="43.97052" lon="5.17411">
        <ele>522.61</ele>
        <time>2017-05-29T09:08:44Z</time>
      </trkpt>
      <trkpt lat="43.97046" lon="5.17406">
        <ele>524.54</ele>
        <time>2017-05-29T09:09:01Z</time>
      </trkpt>
      <trkpt lat="43.9704" lon="5.17404">
        <ele>526.46</ele>
        <time>2017-05-29T09:09:16Z</time>
      </trkpt>
      <trkpt lat="43.97035" lon="5.17404">
        <ele>529.34</ele>
        <time>2017-05-29T09:09:30Z</time>
      </trkpt>
      <trkpt lat="43.97033" lon="5.17407">
        <ele>530.79</ele>
        <time>2017-05-29T09:09:47Z</time>
      </trkpt>
      <trkpt lat="43.9703" lon="5.17409">
        <ele>532.71</ele>
        <time>2017-05-29T09:10:04Z</time>
      </trkpt>
      <trkpt lat="43.97026" lon="5.17411">
        <ele>534.63</ele>
        <time>2017-05-29T09:10:17Z</time>
      </trkpt>
      <trkpt lat="43.97023" lon="5.17414">
        <ele>537.03</ele>
        <time>2017-05-29T09:10:32Z</time>
      </trkpt>
      <trkpt lat="43.9702" lon="5.1741">
        <ele>538.96</ele>
        <time>2017-05-29T09:10:48Z</time>
      </trkpt>
      <trkpt lat="43.97019" lon="5.17408">
        <ele>539.92</ele>
        <time>2017-05-29T09:11:03Z</time>
      </trkpt>
      <trkpt lat="43.97016" lon="5.17413">
        <ele>541.84</ele>
        <time>2017-05-29T09:11:18Z</time>
      </trkpt>
      <trkpt lat="43.97011" lon="5.17411">
        <ele>543.76</ele>
        <time>2017-05-29T09:11:30Z</time>
      </trkpt>
      <trkpt lat="43.97008" lon="5.1741">
        <ele>545.2</ele>
        <time>2017-05-29T09:11:43Z</time>
      </trkpt>
      <trkpt lat="43.97005" lon="5.17405">
        <ele>546.65</ele>
        <time>2017-05-29T09:11:54Z</time>
      </trkpt>
      <trkpt lat="43.97003" lon="5.17405">
        <ele>548.09</ele>
        <time>2017-05-29T09:12:10Z</time>
      </trkpt>
      <trkpt lat="43.97002" lon="5.17406">
        <ele>548.09</ele>
        <time>2017-05-29T09:12:23Z</time>
      </trkpt>
      <trkpt lat="43.97003" lon="5.17405">
        <ele>548.09</ele>
        <time>2017-05-29T09:12:44Z</time>
      </trkpt>
      <trkpt lat="43.97002" lon="5.17406">
        <ele>547.61</ele>
        <time>2017-05-29T09:13:07Z</time>
      </trkpt>
      <trkpt lat="43.97002" lon="5.17406">
        <ele>547.61</ele>
        <time>2017-05-29T09:13:22Z</time>
      </trkpt>
      <trkpt lat="43.96997" lon="5.17411">
        <ele>547.61</ele>
        <time>2017-05-29T09:13:36Z</time>
      </trkpt>
      <trkpt lat="43.96997" lon="5.17413">
        <ele>549.53</ele>
        <time>2017-05-29T09:13:38Z</time>
      </trkpt>
      <trkpt lat="43.96999" lon="5.17409">
        <ele>549.53</ele>
        <time>2017-05-29T09:13:48Z</time>
      </trkpt>
      <trkpt lat="43.97002" lon="5.17405">
        <ele>548.09</ele>
        <time>2017-05-29T09:14:01Z</time>
      </trkpt>
      <trkpt lat="43.97002" lon="5.17404">
        <ele>548.57</ele>
        <time>2017-05-29T09:14:15Z</time>
      </trkpt>
      <trkpt lat="43.97002" lon="5.17405">
        <ele>548.09</ele>
        <time>2017-05-29T09:14:39Z</time>
      </trkpt>
      <trkpt lat="43.97002" lon="5.17407">
        <ele>547.61</ele>
        <time>2017-05-29T09:14:56Z</time>
      </trkpt>
      <trkpt lat="43.97003" lon="5.17407">
        <ele>547.13</ele>
        <time>2017-05-29T09:15:17Z</time>
      </trkpt>
      <trkpt lat="43.97002" lon="5.17406">
        <ele>547.13</ele>
        <time>2017-05-29T09:15:33Z</time>
      </trkpt>
      <trkpt lat="43.97002" lon="5.17406">
        <ele>548.09</ele>
        <time>2017-05-29T09:15:36Z</time>
      </trkpt>
      <trkpt lat="43.97002" lon="5.17404">
        <ele>548.09</ele>
        <time>2017-05-29T09:15:57Z</time>
      </trkpt>
      <trkpt lat="43.97003" lon="5.17404">
        <ele>548.09</ele>
        <time>2017-05-29T09:16:19Z</time>
      </trkpt>
      <trkpt lat="43.97004" lon="5.17405">
        <ele>548.57</ele>
        <time>2017-05-29T09:16:44Z</time>
      </trkpt>
      <trkpt lat="43.97006" lon="5.17405">
        <ele>548.57</ele>
        <time>2017-05-29T09:17:03Z</time>
      </trkpt>
      <trkpt lat="43.97005" lon="5.17405">
        <ele>548.57</ele>
        <time>2017-05-29T09:17:24Z</time>
      </trkpt>
      <trkpt lat="43.97004" lon="5.17407">
        <ele>548.57</ele>
        <time>2017-05-29T09:17:48Z</time>
      </trkpt>
      <trkpt lat="43.97004" lon="5.17406">
        <ele>548.57</ele>
        <time>2017-05-29T09:18:13Z</time>
      </trkpt>
      <trkpt lat="43.97003" lon="5.17406">
        <ele>548.57</ele>
        <time>2017-05-29T09:18:36Z</time>
      </trkpt>
      <trkpt lat="43.97003" lon="5.17406">
        <ele>548.57</ele>
        <time>2017-05-29T09:18:59Z</time>
      </trkpt>
      <trkpt lat="43.97003" lon="5.17406">
        <ele>548.57</ele>
        <time>2017-05-29T09:19:16Z</time>
      </trkpt>
      <trkpt lat="43.97002" lon="5.17406">
        <ele>548.57</ele>
        <time>2017-05-29T09:19:37Z</time>
      </trkpt>
      <trkpt lat="43.97002" lon="5.17406">
        <ele>548.57</ele>
        <time>2017-05-29T09:19:53Z</time>
      </trkpt>
      <trkpt lat="43.97002" lon="5.17407">
        <ele>549.05</ele>
        <time>2017-05-29T09:20:13Z</time>
      </trkpt>
      <trkpt lat="43.97002" lon="5.17406">
        <ele>549.05</ele>
        <time>2017-05-29T09:20:36Z</time>
      </trkpt>
      <trkpt lat="43.97" lon="5.17408">
        <ele>549.05</ele>
        <time>2017-05-29T09:20:54Z</time>
      </trkpt>
      <trkpt lat="43.96995" lon="5.17419">
        <ele>550.49</ele>
        <time>2017-05-29T09:21:09Z</time>
      </trkpt>
      <trkpt lat="43.96983" lon="5.17426">
        <ele>550.49</ele>
        <time>2017-05-29T09:21:26Z</time>
      </trkpt>
      <trkpt lat="43.96968" lon="5.17429">
        <ele>550.49</ele>
        <time>2017-05-29T09:21:44Z</time>
      </trkpt>
      <trkpt lat="43.96955" lon="5.17427">
        <ele>549.53</ele>
        <time>2017-05-29T09:21:59Z</time>
      </trkpt>
      <trkpt lat="43.9694" lon="5.17426">
        <ele>549.53</ele>
        <time>2017-05-29T09:22:16Z</time>
      </trkpt>
      <trkpt lat="43.9693" lon="5.17418">
        <ele>547.61</ele>
        <time>2017-05-29T09:22:33Z</time>
      </trkpt>
      <trkpt lat="43.96915" lon="5.17416">
        <ele>547.13</ele>
        <time>2017-05-29T09:22:51Z</time>
      </trkpt>
      <trkpt lat="43.96901" lon="5.1741">
        <ele>546.17</ele>
        <time>2017-05-29T09:23:09Z</time>
      </trkpt>
      <trkpt lat="43.96894" lon="5.17402">
        <ele>545.69</ele>
        <time>2017-05-29T09:23:22Z</time>
      </trkpt>
      <trkpt lat="43.96877" lon="5.17394">
        <ele>544.24</ele>
        <time>2017-05-29T09:23:42Z</time>
      </trkpt>
      <trkpt lat="43.96865" lon="5.17388">
        <ele>542.8</ele>
        <time>2017-05-29T09:23:58Z</time>
      </trkpt>
      <trkpt lat="43.96854" lon="5.17381">
        <ele>542.32</ele>
        <time>2017-05-29T09:24:14Z</time>
      </trkpt>
      <trkpt lat="43.96848" lon="5.17373">
        <ele>539.92</ele>
        <time>2017-05-29T09:24:28Z</time>
      </trkpt>
      <trkpt lat="43.96843" lon="5.17367">
        <ele>540.88</ele>
        <time>2017-05-29T09:24:39Z</time>
      </trkpt>
      <trkpt lat="43.96832" lon="5.17359">
        <ele>542.32</ele>
        <time>2017-05-29T09:24:55Z</time>
      </trkpt>
      <trkpt lat="43.96818" lon="5.17354">
        <ele>543.28</ele>
        <time>2017-05-29T09:25:12Z</time>
      </trkpt>
      <trkpt lat="43.96811" lon="5.17348">
        <ele>541.84</ele>
        <time>2017-05-29T09:25:26Z</time>
      </trkpt>
      <trkpt lat="43.96805" lon="5.17347">
        <ele>540.4</ele>
        <time>2017-05-29T09:25:40Z</time>
      </trkpt>
      <trkpt lat="43.968" lon="5.17348">
        <ele>539.44</ele>
        <time>2017-05-29T09:25:56Z</time>
      </trkpt>
      <trkpt lat="43.96798" lon="5.17342">
        <ele>538.48</ele>
        <time>2017-05-29T09:26:09Z</time>
      </trkpt>
      <trkpt lat="43.9679" lon="5.17341">
        <ele>536.07</ele>
        <time>2017-05-29T09:26:25Z</time>
      </trkpt>
      <trkpt lat="43.96778" lon="5.17347">
        <ele>535.59</ele>
        <time>2017-05-29T09:26:41Z</time>
      </trkpt>
      <trkpt lat="43.96771" lon="5.17346">
        <ele>535.11</ele>
        <time>2017-05-29T09:26:48Z</time>
      </trkpt>
      <trkpt lat="43.96762" lon="5.17337">
        <ele>534.15</ele>
        <time>2017-05-29T09:27:05Z</time>
      </trkpt>
      <trkpt lat="43.96752" lon="5.17325">
        <ele>532.71</ele>
        <time>2017-05-29T09:27:19Z</time>
      </trkpt>
      <trkpt lat="43.96744" lon="5.17324">
        <ele>530.79</ele>
        <time>2017-05-29T09:27:35Z</time>
      </trkpt>
      <trkpt lat="43.96736" lon="5.17321">
        <ele>529.34</ele>
        <time>2017-05-29T09:27:52Z</time>
      </trkpt>
      <trkpt lat="43.96733" lon="5.17316">
        <ele>527.42</ele>
        <time>2017-05-29T09:28:07Z</time>
      </trkpt>
      <trkpt lat="43.96726" lon="5.17311">
        <ele>525.5</ele>
        <time>2017-05-29T09:28:23Z</time>
      </trkpt>
      <trkpt lat="43.96719" lon="5.17305">
        <ele>526.46</ele>
        <time>2017-05-29T09:28:39Z</time>
      </trkpt>
      <trkpt lat="43.96714" lon="5.173">
        <ele>528.86</ele>
        <time>2017-05-29T09:28:55Z</time>
      </trkpt>
      <trkpt lat="43.96712" lon="5.17294">
        <ele>530.79</ele>
        <time>2017-05-29T09:29:10Z</time>
      </trkpt>
      <trkpt lat="43.96706" lon="5.17286">
        <ele>532.71</ele>
        <time>2017-05-29T09:29:26Z</time>
      </trkpt>
      <trkpt lat="43.96696" lon="5.17282">
        <ele>534.15</ele>
        <time>2017-05-29T09:29:41Z</time>
      </trkpt>
      <trkpt lat="43.96687" lon="5.17272">
        <ele>535.59</ele>
        <time>2017-05-29T09:29:58Z</time>
      </trkpt>
      <trkpt lat="43.96677" lon="5.17267">
        <ele>536.55</ele>
        <time>2017-05-29T09:30:14Z</time>
      </trkpt>
      <trkpt lat="43.96676" lon="5.17267">
        <ele>537.51</ele>
        <time>2017-05-29T09:30:31Z</time>
      </trkpt>
      <trkpt lat="43.96677" lon="5.17266">
        <ele>531.27</ele>
        <time>2017-05-29T09:30:41Z</time>
      </trkpt>
      <trkpt lat="43.96677" lon="5.17266">
        <ele>541.36</ele>
        <time>2017-05-29T09:30:42Z</time>
      </trkpt>
      <trkpt lat="43.96676" lon="5.17266">
        <ele>537.03</ele>
        <time>2017-05-29T09:30:43Z</time>
      </trkpt>
      <trkpt lat="43.96676" lon="5.17266">
        <ele>536.55</ele>
        <time>2017-05-29T09:30:45Z</time>
      </trkpt>
      <trkpt lat="43.96668" lon="5.17273">
        <ele>537.99</ele>
        <time>2017-05-29T09:31:02Z</time>
      </trkpt>
      <trkpt lat="43.96667" lon="5.17275">
        <ele>536.07</ele>
        <time>2017-05-29T09:31:21Z</time>
      </trkpt>
      <trkpt lat="43.96662" lon="5.17283">
        <ele>536.07</ele>
        <time>2017-05-29T09:31:35Z</time>
      </trkpt>
      <trkpt lat="43.96655" lon="5.17296">
        <ele>534.63</ele>
        <time>2017-05-29T09:31:47Z</time>
      </trkpt>
      <trkpt lat="43.96648" lon="5.1731">
        <ele>534.63</ele>
        <time>2017-05-29T09:32:00Z</time>
      </trkpt>
      <trkpt lat="43.96637" lon="5.17323">
        <ele>534.15</ele>
        <time>2017-05-29T09:32:18Z</time>
      </trkpt>
      <trkpt lat="43.96627" lon="5.17338">
        <ele>532.23</ele>
        <time>2017-05-29T09:32:33Z</time>
      </trkpt>
      <trkpt lat="43.96618" lon="5.17352">
        <ele>532.23</ele>
        <time>2017-05-29T09:32:47Z</time>
      </trkpt>
      <trkpt lat="43.96612" lon="5.17368">
        <ele>531.75</ele>
        <time>2017-05-29T09:33:03Z</time>
      </trkpt>
      <trkpt lat="43.96609" lon="5.17384">
        <ele>531.75</ele>
        <time>2017-05-29T09:33:17Z</time>
      </trkpt>
      <trkpt lat="43.96598" lon="5.17407">
        <ele>531.75</ele>
        <time>2017-05-29T09:33:33Z</time>
      </trkpt>
      <trkpt lat="43.9659" lon="5.17426">
        <ele>533.19</ele>
        <time>2017-05-29T09:33:49Z</time>
      </trkpt>
      <trkpt lat="43.9658" lon="5.17437">
        <ele>533.67</ele>
        <time>2017-05-29T09:34:05Z</time>
      </trkpt>
      <trkpt lat="43.96578" lon="5.17435">
        <ele>534.15</ele>
        <time>2017-05-29T09:34:19Z</time>
      </trkpt>
      <trkpt lat="43.96579" lon="5.17433">
        <ele>534.63</ele>
        <time>2017-05-29T09:34:36Z</time>
      </trkpt>
      <trkpt lat="43.9658" lon="5.17431">
        <ele>534.63</ele>
        <time>2017-05-29T09:35:03Z</time>
      </trkpt>
      <trkpt lat="43.96581" lon="5.17432">
        <ele>535.59</ele>
        <time>2017-05-29T09:35:34Z</time>
      </trkpt>
      <trkpt lat="43.96583" lon="5.1744">
        <ele>534.63</ele>
        <time>2017-05-29T09:35:51Z</time>
      </trkpt>
      <trkpt lat="43.96577" lon="5.1745">
        <ele>534.63</ele>
        <time>2017-05-29T09:36:08Z</time>
      </trkpt>
      <trkpt lat="43.96576" lon="5.1745">
        <ele>534.63</ele>
        <time>2017-05-29T09:36:24Z</time>
      </trkpt>
      <trkpt lat="43.96578" lon="5.17451">
        <ele>534.63</ele>
        <time>2017-05-29T09:36:46Z</time>
      </trkpt>
      <trkpt lat="43.96577" lon="5.17447">
        <ele>534.63</ele>
        <time>2017-05-29T09:37:13Z</time>
      </trkpt>
      <trkpt lat="43.96572" lon="5.17445">
        <ele>534.63</ele>
        <time>2017-05-29T09:37:37Z</time>
      </trkpt>
      <trkpt lat="43.96571" lon="5.17425">
        <ele>535.11</ele>
        <time>2017-05-29T09:37:54Z</time>
      </trkpt>
      <trkpt lat="43.96563" lon="5.17406">
        <ele>536.55</ele>
        <time>2017-05-29T09:38:12Z</time>
      </trkpt>
      <trkpt lat="43.96549" lon="5.174">
        <ele>538.48</ele>
        <time>2017-05-29T09:38:27Z</time>
      </trkpt>
      <trkpt lat="43.96536" lon="5.17395">
        <ele>540.4</ele>
        <time>2017-05-29T09:38:45Z</time>
      </trkpt>
      <trkpt lat="43.96521" lon="5.17386">
        <ele>541.84</ele>
        <time>2017-05-29T09:39:03Z</time>
      </trkpt>
      <trkpt lat="43.96517" lon="5.1738">
        <ele>542.32</ele>
        <time>2017-05-29T09:39:09Z</time>
      </trkpt>
      <trkpt lat="43.96509" lon="5.17365">
        <ele>543.76</ele>
        <time>2017-05-29T09:39:24Z</time>
      </trkpt>
      <trkpt lat="43.96497" lon="5.17348">
        <ele>545.2</ele>
        <time>2017-05-29T09:39:43Z</time>
      </trkpt>
      <trkpt lat="43.96486" lon="5.17328">
        <ele>546.17</ele>
        <time>2017-05-29T09:40:02Z</time>
      </trkpt>
      <trkpt lat="43.96467" lon="5.17314">
        <ele>547.61</ele>
        <time>2017-05-29T09:40:22Z</time>
      </trkpt>
      <trkpt lat="43.9645" lon="5.17303">
        <ele>549.05</ele>
        <time>2017-05-29T09:40:39Z</time>
      </trkpt>
      <trkpt lat="43.96442" lon="5.17297">
        <ele>549.05</ele>
        <time>2017-05-29T09:40:55Z</time>
      </trkpt>
      <trkpt lat="43.96445" lon="5.17295">
        <ele>549.53</ele>
        <time>2017-05-29T09:41:25Z</time>
      </trkpt>
      <trkpt lat="43.96445" lon="5.17296">
        <ele>550.01</ele>
        <time>2017-05-29T09:41:57Z</time>
      </trkpt>
      <trkpt lat="43.96447" lon="5.17294">
        <ele>550.01</ele>
        <time>2017-05-29T09:42:21Z</time>
      </trkpt>
      <trkpt lat="43.96446" lon="5.17294">
        <ele>549.05</ele>
        <time>2017-05-29T09:42:53Z</time>
      </trkpt>
      <trkpt lat="43.96443" lon="5.17297">
        <ele>549.05</ele>
        <time>2017-05-29T09:43:17Z</time>
      </trkpt>
      <trkpt lat="43.96444" lon="5.17297">
        <ele>552.9</ele>
        <time>2017-05-29T09:43:49Z</time>
      </trkpt>
      <trkpt lat="43.96444" lon="5.17297">
        <ele>549.53</ele>
        <time>2017-05-29T09:43:50Z</time>
      </trkpt>
      <trkpt lat="43.96445" lon="5.17295">
        <ele>549.53</ele>
        <time>2017-05-29T09:44:06Z</time>
      </trkpt>
      <trkpt lat="43.96446" lon="5.17289">
        <ele>549.05</ele>
        <time>2017-05-29T09:44:35Z</time>
      </trkpt>
      <trkpt lat="43.96444" lon="5.17294">
        <ele>549.05</ele>
        <time>2017-05-29T09:44:58Z</time>
      </trkpt>
      <trkpt lat="43.96446" lon="5.17294">
        <ele>549.53</ele>
        <time>2017-05-29T09:45:22Z</time>
      </trkpt>
      <trkpt lat="43.96448" lon="5.17295">
        <ele>549.53</ele>
        <time>2017-05-29T09:45:50Z</time>
      </trkpt>
      <trkpt lat="43.96435" lon="5.17294">
        <ele>549.53</ele>
        <time>2017-05-29T09:46:03Z</time>
      </trkpt>
      <trkpt lat="43.96418" lon="5.17281">
        <ele>549.05</ele>
        <time>2017-05-29T09:46:21Z</time>
      </trkpt>
      <trkpt lat="43.96404" lon="5.17268">
        <ele>549.05</ele>
        <time>2017-05-29T09:46:37Z</time>
      </trkpt>
      <trkpt lat="43.9639" lon="5.17257">
        <ele>549.05</ele>
        <time>2017-05-29T09:46:55Z</time>
      </trkpt>
      <trkpt lat="43.96376" lon="5.17256">
        <ele>548.09</ele>
        <time>2017-05-29T09:47:13Z</time>
      </trkpt>
      <trkpt lat="43.96363" lon="5.17255">
        <ele>546.17</ele>
        <time>2017-05-29T09:47:27Z</time>
      </trkpt>
      <trkpt lat="43.9635" lon="5.17255">
        <ele>544.72</ele>
        <time>2017-05-29T09:47:42Z</time>
      </trkpt>
      <trkpt lat="43.96335" lon="5.17254">
        <ele>543.28</ele>
        <time>2017-05-29T09:47:58Z</time>
      </trkpt>
      <trkpt lat="43.9632" lon="5.17259">
        <ele>542.32</ele>
        <time>2017-05-29T09:48:12Z</time>
      </trkpt>
      <trkpt lat="43.96305" lon="5.17262">
        <ele>539.92</ele>
        <time>2017-05-29T09:48:28Z</time>
      </trkpt>
      <trkpt lat="43.96293" lon="5.17264">
        <ele>539.44</ele>
        <time>2017-05-29T09:48:42Z</time>
      </trkpt>
      <trkpt lat="43.96279" lon="5.1726">
        <ele>538.48</ele>
        <time>2017-05-29T09:48:56Z</time>
      </trkpt>
      <trkpt lat="43.96274" lon="5.17247">
        <ele>537.99</ele>
        <time>2017-05-29T09:49:11Z</time>
      </trkpt>
      <trkpt lat="43.96277" lon="5.17236">
        <ele>537.51</ele>
        <time>2017-05-29T09:49:34Z</time>
      </trkpt>
      <trkpt lat="43.96283" lon="5.17228">
        <ele>536.07</ele>
        <time>2017-05-29T09:49:47Z</time>
      </trkpt>
      <trkpt lat="43.96294" lon="5.17219">
        <ele>535.11</ele>
        <time>2017-05-29T09:50:03Z</time>
      </trkpt>
      <trkpt lat="43.96304" lon="5.17207">
        <ele>534.15</ele>
        <time>2017-05-29T09:50:19Z</time>
      </trkpt>
      <trkpt lat="43.96312" lon="5.17191">
        <ele>533.19</ele>
        <time>2017-05-29T09:50:34Z</time>
      </trkpt>
      <trkpt lat="43.96318" lon="5.1717">
        <ele>531.75</ele>
        <time>2017-05-29T09:50:50Z</time>
      </trkpt>
      <trkpt lat="43.96324" lon="5.17155">
        <ele>530.79</ele>
        <time>2017-05-29T09:51:05Z</time>
      </trkpt>
      <trkpt lat="43.96332" lon="5.17142">
        <ele>529.82</ele>
        <time>2017-05-29T09:51:20Z</time>
      </trkpt>
      <trkpt lat="43.96339" lon="5.17131">
        <ele>529.34</ele>
        <time>2017-05-29T09:51:33Z</time>
      </trkpt>
      <trkpt lat="43.96346" lon="5.17121">
        <ele>527.9</ele>
        <time>2017-05-29T09:51:46Z</time>
      </trkpt>
      <trkpt lat="43.96357" lon="5.17113">
        <ele>526.46</ele>
        <time>2017-05-29T09:52:03Z</time>
      </trkpt>
      <trkpt lat="43.96373" lon="5.171">
        <ele>525.5</ele>
        <time>2017-05-29T09:52:19Z</time>
      </trkpt>
      <trkpt lat="43.96389" lon="5.17094">
        <ele>524.54</ele>
        <time>2017-05-29T09:52:36Z</time>
      </trkpt>
      <trkpt lat="43.964" lon="5.17087">
        <ele>523.58</ele>
        <time>2017-05-29T09:52:51Z</time>
      </trkpt>
      <trkpt lat="43.96412" lon="5.17078">
        <ele>522.61</ele>
        <time>2017-05-29T09:53:05Z</time>
      </trkpt>
      <trkpt lat="43.96424" lon="5.17069">
        <ele>521.65</ele>
        <time>2017-05-29T09:53:20Z</time>
      </trkpt>
      <trkpt lat="43.96435" lon="5.17056">
        <ele>521.17</ele>
        <time>2017-05-29T09:53:35Z</time>
      </trkpt>
      <trkpt lat="43.96438" lon="5.1704">
        <ele>520.21</ele>
        <time>2017-05-29T09:53:53Z</time>
      </trkpt>
      <trkpt lat="43.9644" lon="5.17028">
        <ele>518.29</ele>
        <time>2017-05-29T09:54:09Z</time>
      </trkpt>
      <trkpt lat="43.96449" lon="5.17016">
        <ele>516.85</ele>
        <time>2017-05-29T09:54:23Z</time>
      </trkpt>
      <trkpt lat="43.96459" lon="5.17011">
        <ele>516.37</ele>
        <time>2017-05-29T09:54:36Z</time>
      </trkpt>
      <trkpt lat="43.96475" lon="5.17003">
        <ele>515.4</ele>
        <time>2017-05-29T09:54:52Z</time>
      </trkpt>
      <trkpt lat="43.96484" lon="5.16996">
        <ele>513.96</ele>
        <time>2017-05-29T09:55:09Z</time>
      </trkpt>
      <trkpt lat="43.96486" lon="5.16993">
        <ele>513.96</ele>
        <time>2017-05-29T09:55:27Z</time>
      </trkpt>
      <trkpt lat="43.96483" lon="5.16996">
        <ele>513.96</ele>
        <time>2017-05-29T09:55:56Z</time>
      </trkpt>
      <trkpt lat="43.96482" lon="5.17004">
        <ele>513.48</ele>
        <time>2017-05-29T09:56:26Z</time>
      </trkpt>
      <trkpt lat="43.96483" lon="5.17002">
        <ele>513.48</ele>
        <time>2017-05-29T09:56:52Z</time>
      </trkpt>
      <trkpt lat="43.96483" lon="5.17003">
        <ele>513.96</ele>
        <time>2017-05-29T09:57:15Z</time>
      </trkpt>
      <trkpt lat="43.96486" lon="5.16997">
        <ele>514.92</ele>
        <time>2017-05-29T09:57:37Z</time>
      </trkpt>
      <trkpt lat="43.96491" lon="5.16991">
        <ele>514.92</ele>
        <time>2017-05-29T09:58:00Z</time>
      </trkpt>
      <trkpt lat="43.96499" lon="5.16986">
        <ele>513</ele>
        <time>2017-05-29T09:58:18Z</time>
      </trkpt>
      <trkpt lat="43.96506" lon="5.16983">
        <ele>512.52</ele>
        <time>2017-05-29T09:58:31Z</time>
      </trkpt>
      <trkpt lat="43.96513" lon="5.16983">
        <ele>512.04</ele>
        <time>2017-05-29T09:58:47Z</time>
      </trkpt>
      <trkpt lat="43.96527" lon="5.1698">
        <ele>511.08</ele>
        <time>2017-05-29T09:59:05Z</time>
      </trkpt>
      <trkpt lat="43.96535" lon="5.16977">
        <ele>510.12</ele>
        <time>2017-05-29T09:59:18Z</time>
      </trkpt>
      <trkpt lat="43.96538" lon="5.16975">
        <ele>509.64</ele>
        <time>2017-05-29T09:59:37Z</time>
      </trkpt>
      <trkpt lat="43.96538" lon="5.16972">
        <ele>509.64</ele>
        <time>2017-05-29T09:59:53Z</time>
      </trkpt>
      <trkpt lat="43.96541" lon="5.16969">
        <ele>509.16</ele>
        <time>2017-05-29T10:00:08Z</time>
      </trkpt>
      <trkpt lat="43.96547" lon="5.16963">
        <ele>507.71</ele>
        <time>2017-05-29T10:00:24Z</time>
      </trkpt>
      <trkpt lat="43.9655" lon="5.16955">
        <ele>506.75</ele>
        <time>2017-05-29T10:00:37Z</time>
      </trkpt>
      <trkpt lat="43.96552" lon="5.16948">
        <ele>505.79</ele>
        <time>2017-05-29T10:00:54Z</time>
      </trkpt>
      <trkpt lat="43.96558" lon="5.16948">
        <ele>504.83</ele>
        <time>2017-05-29T10:01:08Z</time>
      </trkpt>
      <trkpt lat="43.9656" lon="5.16948">
        <ele>503.87</ele>
        <time>2017-05-29T10:01:27Z</time>
      </trkpt>
      <trkpt lat="43.96559" lon="5.16948">
        <ele>503.87</ele>
        <time>2017-05-29T10:01:45Z</time>
      </trkpt>
      <trkpt lat="43.9656" lon="5.16948">
        <ele>503.39</ele>
        <time>2017-05-29T10:02:09Z</time>
      </trkpt>
      <trkpt lat="43.96562" lon="5.16948">
        <ele>503.39</ele>
        <time>2017-05-29T10:02:24Z</time>
      </trkpt>
      <trkpt lat="43.9656" lon="5.16948">
        <ele>504.83</ele>
        <time>2017-05-29T10:02:27Z</time>
      </trkpt>
      <trkpt lat="43.96561" lon="5.16946">
        <ele>497.62</ele>
        <time>2017-05-29T10:02:34Z</time>
      </trkpt>
      <trkpt lat="43.96561" lon="5.16946">
        <ele>505.79</ele>
        <time>2017-05-29T10:02:35Z</time>
      </trkpt>
      <trkpt lat="43.96559" lon="5.16943">
        <ele>504.35</ele>
        <time>2017-05-29T10:02:54Z</time>
      </trkpt>
      <trkpt lat="43.96559" lon="5.16942">
        <ele>500.5</ele>
        <time>2017-05-29T10:03:00Z</time>
      </trkpt>
      <trkpt lat="43.9656" lon="5.16942">
        <ele>504.35</ele>
        <time>2017-05-29T10:03:01Z</time>
      </trkpt>
      <trkpt lat="43.9656" lon="5.16936">
        <ele>502.91</ele>
        <time>2017-05-29T10:03:19Z</time>
      </trkpt>
      <trkpt lat="43.96563" lon="5.16941">
        <ele>506.75</ele>
        <time>2017-05-29T10:03:35Z</time>
      </trkpt>
      <trkpt lat="43.96565" lon="5.16943">
        <ele>503.39</ele>
        <time>2017-05-29T10:03:37Z</time>
      </trkpt>
      <trkpt lat="43.96563" lon="5.16945">
        <ele>504.83</ele>
        <time>2017-05-29T10:03:45Z</time>
      </trkpt>
      <trkpt lat="43.96562" lon="5.16944">
        <ele>504.83</ele>
        <time>2017-05-29T10:04:06Z</time>
      </trkpt>
      <trkpt lat="43.96564" lon="5.16944">
        <ele>497.62</ele>
        <time>2017-05-29T10:04:16Z</time>
      </trkpt>
      <trkpt lat="43.96564" lon="5.16944">
        <ele>510.12</ele>
        <time>2017-05-29T10:04:17Z</time>
      </trkpt>
      <trkpt lat="43.96563" lon="5.16944">
        <ele>504.35</ele>
        <time>2017-05-29T10:04:18Z</time>
      </trkpt>
      <trkpt lat="43.96561" lon="5.16944">
        <ele>504.35</ele>
        <time>2017-05-29T10:04:50Z</time>
      </trkpt>
      <trkpt lat="43.96563" lon="5.16944">
        <ele>503.87</ele>
        <time>2017-05-29T10:05:19Z</time>
      </trkpt>
      <trkpt lat="43.96563" lon="5.16945">
        <ele>503.87</ele>
        <time>2017-05-29T10:05:51Z</time>
      </trkpt>
      <trkpt lat="43.96563" lon="5.16948">
        <ele>503.87</ele>
        <time>2017-05-29T10:06:29Z</time>
      </trkpt>
      <trkpt lat="43.96563" lon="5.16947">
        <ele>504.35</ele>
        <time>2017-05-29T10:07:12Z</time>
      </trkpt>
      <trkpt lat="43.96563" lon="5.16948">
        <ele>504.35</ele>
        <time>2017-05-29T10:07:51Z</time>
      </trkpt>
      <trkpt lat="43.96564" lon="5.16949">
        <ele>504.35</ele>
        <time>2017-05-29T10:08:25Z</time>
      </trkpt>
      <trkpt lat="43.96566" lon="5.16952">
        <ele>504.35</ele>
        <time>2017-05-29T10:09:04Z</time>
      </trkpt>
      <trkpt lat="43.96565" lon="5.16952">
        <ele>504.35</ele>
        <time>2017-05-29T10:09:35Z</time>
      </trkpt>
      <trkpt lat="43.96563" lon="5.16947">
        <ele>504.35</ele>
        <time>2017-05-29T10:10:11Z</time>
      </trkpt>
      <trkpt lat="43.96561" lon="5.16945">
        <ele>504.35</ele>
        <time>2017-05-29T10:10:43Z</time>
      </trkpt>
      <trkpt lat="43.96561" lon="5.16946">
        <ele>504.35</ele>
        <time>2017-05-29T10:11:20Z</time>
      </trkpt>
      <trkpt lat="43.96563" lon="5.16949">
        <ele>504.35</ele>
        <time>2017-05-29T10:11:53Z</time>
      </trkpt>
      <trkpt lat="43.96562" lon="5.16947">
        <ele>504.35</ele>
        <time>2017-05-29T10:12:30Z</time>
      </trkpt>
      <trkpt lat="43.96561" lon="5.16945">
        <ele>504.35</ele>
        <time>2017-05-29T10:13:03Z</time>
      </trkpt>
      <trkpt lat="43.9656" lon="5.16944">
        <ele>504.35</ele>
        <time>2017-05-29T10:13:45Z</time>
      </trkpt>
      <trkpt lat="43.96562" lon="5.16947">
        <ele>504.35</ele>
        <time>2017-05-29T10:14:26Z</time>
      </trkpt>
      <trkpt lat="43.96564" lon="5.16948">
        <ele>504.35</ele>
        <time>2017-05-29T10:14:53Z</time>
      </trkpt>
      <trkpt lat="43.96565" lon="5.16951">
        <ele>504.35</ele>
        <time>2017-05-29T10:15:28Z</time>
      </trkpt>
      <trkpt lat="43.96566" lon="5.16949">
        <ele>504.35</ele>
        <time>2017-05-29T10:16:03Z</time>
      </trkpt>
      <trkpt lat="43.96563" lon="5.16946">
        <ele>504.35</ele>
        <time>2017-05-29T10:16:35Z</time>
      </trkpt>
      <trkpt lat="43.96562" lon="5.16947">
        <ele>504.35</ele>
        <time>2017-05-29T10:17:11Z</time>
      </trkpt>
      <trkpt lat="43.96562" lon="5.16946">
        <ele>504.35</ele>
        <time>2017-05-29T10:17:42Z</time>
      </trkpt>
      <trkpt lat="43.96563" lon="5.16947">
        <ele>504.35</ele>
        <time>2017-05-29T10:18:07Z</time>
      </trkpt>
      <trkpt lat="43.96561" lon="5.16946">
        <ele>504.35</ele>
        <time>2017-05-29T10:18:46Z</time>
      </trkpt>
      <trkpt lat="43.96562" lon="5.16946">
        <ele>504.83</ele>
        <time>2017-05-29T10:19:19Z</time>
      </trkpt>
      <trkpt lat="43.96561" lon="5.16947">
        <ele>504.35</ele>
        <time>2017-05-29T10:19:53Z</time>
      </trkpt>
      <trkpt lat="43.9656" lon="5.16948">
        <ele>504.35</ele>
        <time>2017-05-29T10:20:17Z</time>
      </trkpt>
      <trkpt lat="43.96562" lon="5.16946">
        <ele>504.83</ele>
        <time>2017-05-29T10:20:45Z</time>
      </trkpt>
      <trkpt lat="43.96562" lon="5.16942">
        <ele>504.83</ele>
        <time>2017-05-29T10:21:07Z</time>
      </trkpt>
      <trkpt lat="43.96562" lon="5.16943">
        <ele>504.83</ele>
        <time>2017-05-29T10:21:39Z</time>
      </trkpt>
      <trkpt lat="43.96563" lon="5.16946">
        <ele>504.83</ele>
        <time>2017-05-29T10:22:17Z</time>
      </trkpt>
      <trkpt lat="43.9656" lon="5.16946">
        <ele>504.83</ele>
        <time>2017-05-29T10:22:50Z</time>
      </trkpt>
      <trkpt lat="43.96561" lon="5.16948">
        <ele>504.83</ele>
        <time>2017-05-29T10:23:17Z</time>
      </trkpt>
      <trkpt lat="43.96566" lon="5.16946">
        <ele>504.83</ele>
        <time>2017-05-29T10:23:51Z</time>
      </trkpt>
      <trkpt lat="43.96562" lon="5.16946">
        <ele>504.83</ele>
        <time>2017-05-29T10:24:31Z</time>
      </trkpt>
      <trkpt lat="43.96564" lon="5.16943">
        <ele>504.83</ele>
        <time>2017-05-29T10:24:50Z</time>
      </trkpt>
      <trkpt lat="43.96565" lon="5.16939">
        <ele>505.31</ele>
        <time>2017-05-29T10:25:21Z</time>
      </trkpt>
      <trkpt lat="43.96567" lon="5.16939">
        <ele>505.31</ele>
        <time>2017-05-29T10:25:48Z</time>
      </trkpt>
      <trkpt lat="43.9657" lon="5.16938">
        <ele>505.79</ele>
        <time>2017-05-29T10:26:28Z</time>
      </trkpt>
      <trkpt lat="43.96569" lon="5.1694">
        <ele>506.27</ele>
        <time>2017-05-29T10:27:01Z</time>
      </trkpt>
      <trkpt lat="43.96569" lon="5.16939">
        <ele>506.27</ele>
        <time>2017-05-29T10:27:31Z</time>
      </trkpt>
      <trkpt lat="43.96573" lon="5.16938">
        <ele>506.75</ele>
        <time>2017-05-29T10:28:02Z</time>
      </trkpt>
      <trkpt lat="43.96572" lon="5.1694">
        <ele>507.23</ele>
        <time>2017-05-29T10:28:29Z</time>
      </trkpt>
      <trkpt lat="43.96562" lon="5.16943">
        <ele>507.23</ele>
        <time>2017-05-29T10:29:03Z</time>
      </trkpt>
      <trkpt lat="43.96565" lon="5.16942">
        <ele>507.23</ele>
        <time>2017-05-29T10:29:37Z</time>
      </trkpt>
      <trkpt lat="43.96564" lon="5.1694">
        <ele>506.75</ele>
        <time>2017-05-29T10:30:16Z</time>
      </trkpt>
      <trkpt lat="43.96566" lon="5.16943">
        <ele>507.23</ele>
        <time>2017-05-29T10:30:52Z</time>
      </trkpt>
      <trkpt lat="43.96567" lon="5.16945">
        <ele>507.23</ele>
        <time>2017-05-29T10:31:26Z</time>
      </trkpt>
      <trkpt lat="43.96566" lon="5.16944">
        <ele>507.23</ele>
        <time>2017-05-29T10:31:54Z</time>
      </trkpt>
      <trkpt lat="43.96566" lon="5.16945">
        <ele>507.23</ele>
        <time>2017-05-29T10:32:28Z</time>
      </trkpt>
      <trkpt lat="43.96563" lon="5.16941">
        <ele>507.23</ele>
        <time>2017-05-29T10:33:10Z</time>
      </trkpt>
      <trkpt lat="43.96565" lon="5.16942">
        <ele>507.71</ele>
        <time>2017-05-29T10:33:47Z</time>
      </trkpt>
      <trkpt lat="43.96567" lon="5.16946">
        <ele>507.71</ele>
        <time>2017-05-29T10:34:19Z</time>
      </trkpt>
      <trkpt lat="43.96564" lon="5.16944">
        <ele>508.67</ele>
        <time>2017-05-29T10:34:52Z</time>
      </trkpt>
      <trkpt lat="43.96562" lon="5.16944">
        <ele>509.16</ele>
        <time>2017-05-29T10:35:29Z</time>
      </trkpt>
      <trkpt lat="43.96561" lon="5.16938">
        <ele>509.16</ele>
        <time>2017-05-29T10:36:02Z</time>
      </trkpt>
      <trkpt lat="43.96562" lon="5.16935">
        <ele>509.64</ele>
        <time>2017-05-29T10:36:33Z</time>
      </trkpt>
      <trkpt lat="43.96564" lon="5.16939">
        <ele>509.64</ele>
        <time>2017-05-29T10:37:01Z</time>
      </trkpt>
      <trkpt lat="43.96563" lon="5.1694">
        <ele>510.12</ele>
        <time>2017-05-29T10:37:39Z</time>
      </trkpt>
      <trkpt lat="43.96565" lon="5.16942">
        <ele>510.12</ele>
        <time>2017-05-29T10:38:08Z</time>
      </trkpt>
      <trkpt lat="43.96564" lon="5.16946">
        <ele>510.12</ele>
        <time>2017-05-29T10:38:35Z</time>
      </trkpt>
      <trkpt lat="43.96567" lon="5.16944">
        <ele>510.12</ele>
        <time>2017-05-29T10:39:06Z</time>
      </trkpt>
      <trkpt lat="43.96567" lon="5.16946">
        <ele>510.12</ele>
        <time>2017-05-29T10:39:37Z</time>
      </trkpt>
      <trkpt lat="43.96564" lon="5.16942">
        <ele>510.6</ele>
        <time>2017-05-29T10:40:12Z</time>
      </trkpt>
      <trkpt lat="43.96562" lon="5.16943">
        <ele>511.08</ele>
        <time>2017-05-29T10:40:28Z</time>
      </trkpt>
      <trkpt lat="43.96561" lon="5.16943">
        <ele>511.56</ele>
        <time>2017-05-29T10:40:46Z</time>
      </trkpt>
      <trkpt lat="43.96563" lon="5.16945">
        <ele>511.56</ele>
        <time>2017-05-29T10:41:01Z</time>
      </trkpt>
      <trkpt lat="43.96563" lon="5.16939">
        <ele>512.04</ele>
        <time>2017-05-29T10:41:13Z</time>
      </trkpt>
      <trkpt lat="43.96564" lon="5.16939">
        <ele>512.04</ele>
        <time>2017-05-29T10:41:35Z</time>
      </trkpt>
      <trkpt lat="43.96569" lon="5.16941">
        <ele>511.56</ele>
        <time>2017-05-29T10:41:50Z</time>
      </trkpt>
      <trkpt lat="43.9657" lon="5.16938">
        <ele>512.04</ele>
        <time>2017-05-29T10:42:18Z</time>
      </trkpt>
      <trkpt lat="43.96574" lon="5.16938">
        <ele>511.56</ele>
        <time>2017-05-29T10:42:35Z</time>
      </trkpt>
      <trkpt lat="43.96579" lon="5.16935">
        <ele>510.6</ele>
        <time>2017-05-29T10:42:51Z</time>
      </trkpt>
      <trkpt lat="43.96588" lon="5.16928">
        <ele>509.64</ele>
        <time>2017-05-29T10:43:09Z</time>
      </trkpt>
      <trkpt lat="43.96593" lon="5.16918">
        <ele>508.67</ele>
        <time>2017-05-29T10:43:24Z</time>
      </trkpt>
      <trkpt lat="43.96595" lon="5.16912">
        <ele>508.19</ele>
        <time>2017-05-29T10:43:40Z</time>
      </trkpt>
      <trkpt lat="43.96599" lon="5.16901">
        <ele>507.23</ele>
        <time>2017-05-29T10:43:54Z</time>
      </trkpt>
      <trkpt lat="43.96601" lon="5.16891">
        <ele>506.27</ele>
        <time>2017-05-29T10:44:06Z</time>
      </trkpt>
      <trkpt lat="43.96603" lon="5.16881">
        <ele>504.83</ele>
        <time>2017-05-29T10:44:21Z</time>
      </trkpt>
      <trkpt lat="43.96606" lon="5.16869">
        <ele>503.87</ele>
        <time>2017-05-29T10:44:37Z</time>
      </trkpt>
      <trkpt lat="43.96614" lon="5.16862">
        <ele>503.39</ele>
        <time>2017-05-29T10:44:53Z</time>
      </trkpt>
      <trkpt lat="43.96622" lon="5.16856">
        <ele>501.95</ele>
        <time>2017-05-29T10:45:07Z</time>
      </trkpt>
      <trkpt lat="43.96631" lon="5.16847">
        <ele>500.5</ele>
        <time>2017-05-29T10:45:22Z</time>
      </trkpt>
      <trkpt lat="43.96638" lon="5.16841">
        <ele>500.02</ele>
        <time>2017-05-29T10:45:36Z</time>
      </trkpt>
      <trkpt lat="43.96648" lon="5.16834">
        <ele>499.06</ele>
        <time>2017-05-29T10:45:49Z</time>
      </trkpt>
      <trkpt lat="43.9666" lon="5.16827">
        <ele>498.1</ele>
        <time>2017-05-29T10:46:02Z</time>
      </trkpt>
      <trkpt lat="43.9667" lon="5.16814">
        <ele>496.66</ele>
        <time>2017-05-29T10:46:17Z</time>
      </trkpt>
      <trkpt lat="43.96676" lon="5.16803">
        <ele>496.18</ele>
        <time>2017-05-29T10:46:30Z</time>
      </trkpt>
      <trkpt lat="43.96685" lon="5.16785">
        <ele>495.22</ele>
        <time>2017-05-29T10:46:45Z</time>
      </trkpt>
      <trkpt lat="43.96693" lon="5.16773">
        <ele>494.74</ele>
        <time>2017-05-29T10:46:57Z</time>
      </trkpt>
      <trkpt lat="43.96698" lon="5.16769">
        <ele>494.26</ele>
        <time>2017-05-29T10:47:03Z</time>
      </trkpt>
      <trkpt lat="43.96707" lon="5.16764">
        <ele>492.81</ele>
        <time>2017-05-29T10:47:16Z</time>
      </trkpt>
      <trkpt lat="43.96716" lon="5.16754">
        <ele>491.85</ele>
        <time>2017-05-29T10:47:30Z</time>
      </trkpt>
      <trkpt lat="43.96723" lon="5.16754">
        <ele>491.37</ele>
        <time>2017-05-29T10:47:42Z</time>
      </trkpt>
      <trkpt lat="43.96734" lon="5.16749">
        <ele>490.89</ele>
        <time>2017-05-29T10:47:59Z</time>
      </trkpt>
      <trkpt lat="43.96742" lon="5.16746">
        <ele>489.93</ele>
        <time>2017-05-29T10:48:11Z</time>
      </trkpt>
      <trkpt lat="43.96754" lon="5.16742">
        <ele>488.97</ele>
        <time>2017-05-29T10:48:24Z</time>
      </trkpt>
      <trkpt lat="43.96762" lon="5.16734">
        <ele>488.01</ele>
        <time>2017-05-29T10:48:38Z</time>
      </trkpt>
      <trkpt lat="43.96774" lon="5.16723">
        <ele>487.05</ele>
        <time>2017-05-29T10:48:54Z</time>
      </trkpt>
      <trkpt lat="43.96784" lon="5.1671">
        <ele>486.56</ele>
        <time>2017-05-29T10:49:05Z</time>
      </trkpt>
      <trkpt lat="43.96799" lon="5.16696">
        <ele>485.6</ele>
        <time>2017-05-29T10:49:23Z</time>
      </trkpt>
      <trkpt lat="43.96806" lon="5.16688">
        <ele>484.64</ele>
        <time>2017-05-29T10:49:38Z</time>
      </trkpt>
      <trkpt lat="43.96813" lon="5.16684">
        <ele>483.2</ele>
        <time>2017-05-29T10:49:50Z</time>
      </trkpt>
      <trkpt lat="43.96818" lon="5.16679">
        <ele>481.28</ele>
        <time>2017-05-29T10:50:05Z</time>
      </trkpt>
      <trkpt lat="43.96822" lon="5.16673">
        <ele>480.8</ele>
        <time>2017-05-29T10:50:17Z</time>
      </trkpt>
      <trkpt lat="43.96832" lon="5.16659">
        <ele>479.35</ele>
        <time>2017-05-29T10:50:32Z</time>
      </trkpt>
      <trkpt lat="43.96835" lon="5.16656">
        <ele>479.35</ele>
        <time>2017-05-29T10:50:37Z</time>
      </trkpt>
      <trkpt lat="43.96849" lon="5.16646">
        <ele>477.91</ele>
        <time>2017-05-29T10:50:53Z</time>
      </trkpt>
      <trkpt lat="43.96858" lon="5.16633">
        <ele>476.47</ele>
        <time>2017-05-29T10:51:07Z</time>
      </trkpt>
      <trkpt lat="43.96867" lon="5.1662">
        <ele>475.03</ele>
        <time>2017-05-29T10:51:22Z</time>
      </trkpt>
      <trkpt lat="43.96875" lon="5.16606">
        <ele>475.03</ele>
        <time>2017-05-29T10:51:37Z</time>
      </trkpt>
      <trkpt lat="43.96882" lon="5.166">
        <ele>474.07</ele>
        <time>2017-05-29T10:51:49Z</time>
      </trkpt>
      <trkpt lat="43.96887" lon="5.16594">
        <ele>473.59</ele>
        <time>2017-05-29T10:52:04Z</time>
      </trkpt>
      <trkpt lat="43.96893" lon="5.16583">
        <ele>473.11</ele>
        <time>2017-05-29T10:52:17Z</time>
      </trkpt>
      <trkpt lat="43.96899" lon="5.16577">
        <ele>474.07</ele>
        <time>2017-05-29T10:52:28Z</time>
      </trkpt>
      <trkpt lat="43.96902" lon="5.16566">
        <ele>475.03</ele>
        <time>2017-05-29T10:52:41Z</time>
      </trkpt>
      <trkpt lat="43.96908" lon="5.16555">
        <ele>476.47</ele>
        <time>2017-05-29T10:52:56Z</time>
      </trkpt>
      <trkpt lat="43.96914" lon="5.16544">
        <ele>477.91</ele>
        <time>2017-05-29T10:53:10Z</time>
      </trkpt>
      <trkpt lat="43.96915" lon="5.16539">
        <ele>475.99</ele>
        <time>2017-05-29T10:53:29Z</time>
      </trkpt>
      <trkpt lat="43.96918" lon="5.16537">
        <ele>474.55</ele>
        <time>2017-05-29T10:53:42Z</time>
      </trkpt>
      <trkpt lat="43.96923" lon="5.16534">
        <ele>474.07</ele>
        <time>2017-05-29T10:53:56Z</time>
      </trkpt>
      <trkpt lat="43.96927" lon="5.16534">
        <ele>474.07</ele>
        <time>2017-05-29T10:54:12Z</time>
      </trkpt>
      <trkpt lat="43.9693" lon="5.16534">
        <ele>474.07</ele>
        <time>2017-05-29T10:54:32Z</time>
      </trkpt>
      <trkpt lat="43.96928" lon="5.16534">
        <ele>475.51</ele>
        <time>2017-05-29T10:54:36Z</time>
      </trkpt>
      <trkpt lat="43.96927" lon="5.16534">
        <ele>475.51</ele>
        <time>2017-05-29T10:55:05Z</time>
      </trkpt>
      <trkpt lat="43.96928" lon="5.16534">
        <ele>474.07</ele>
        <time>2017-05-29T10:55:26Z</time>
      </trkpt>
      <trkpt lat="43.96935" lon="5.16535">
        <ele>474.07</ele>
        <time>2017-05-29T10:55:51Z</time>
      </trkpt>
      <trkpt lat="43.96943" lon="5.16533">
        <ele>474.07</ele>
        <time>2017-05-29T10:56:07Z</time>
      </trkpt>
      <trkpt lat="43.96954" lon="5.16532">
        <ele>473.59</ele>
        <time>2017-05-29T10:56:22Z</time>
      </trkpt>
      <trkpt lat="43.96965" lon="5.16535">
        <ele>473.11</ele>
        <time>2017-05-29T10:56:38Z</time>
      </trkpt>
      <trkpt lat="43.96971" lon="5.16537">
        <ele>472.14</ele>
        <time>2017-05-29T10:56:50Z</time>
      </trkpt>
      <trkpt lat="43.96979" lon="5.16544">
        <ele>471.18</ele>
        <time>2017-05-29T10:57:05Z</time>
      </trkpt>
      <trkpt lat="43.96989" lon="5.16549">
        <ele>470.22</ele>
        <time>2017-05-29T10:57:19Z</time>
      </trkpt>
      <trkpt lat="43.96996" lon="5.16551">
        <ele>470.22</ele>
        <time>2017-05-29T10:57:34Z</time>
      </trkpt>
      <trkpt lat="43.97005" lon="5.16552">
        <ele>470.22</ele>
        <time>2017-05-29T10:57:50Z</time>
      </trkpt>
      <trkpt lat="43.97018" lon="5.16558">
        <ele>472.14</ele>
        <time>2017-05-29T10:58:05Z</time>
      </trkpt>
      <trkpt lat="43.97025" lon="5.16562">
        <ele>471.66</ele>
        <time>2017-05-29T10:58:19Z</time>
      </trkpt>
      <trkpt lat="43.97039" lon="5.16558">
        <ele>474.07</ele>
        <time>2017-05-29T10:58:37Z</time>
      </trkpt>
      <trkpt lat="43.97051" lon="5.16562">
        <ele>474.55</ele>
        <time>2017-05-29T10:58:52Z</time>
      </trkpt>
      <trkpt lat="43.97055" lon="5.16563">
        <ele>475.03</ele>
        <time>2017-05-29T10:59:07Z</time>
      </trkpt>
      <trkpt lat="43.97065" lon="5.16566">
        <ele>473.59</ele>
        <time>2017-05-29T10:59:24Z</time>
      </trkpt>
      <trkpt lat="43.97077" lon="5.1657">
        <ele>471.66</ele>
        <time>2017-05-29T10:59:43Z</time>
      </trkpt>
      <trkpt lat="43.97089" lon="5.16571">
        <ele>470.22</ele>
        <time>2017-05-29T11:00:00Z</time>
      </trkpt>
      <trkpt lat="43.971" lon="5.16574">
        <ele>468.78</ele>
        <time>2017-05-29T11:00:16Z</time>
      </trkpt>
      <trkpt lat="43.97115" lon="5.16577">
        <ele>467.82</ele>
        <time>2017-05-29T11:00:33Z</time>
      </trkpt>
      <trkpt lat="43.97119" lon="5.16571">
        <ele>467.82</ele>
        <time>2017-05-29T11:00:46Z</time>
      </trkpt>
      <trkpt lat="43.97123" lon="5.16568">
        <ele>467.82</ele>
        <time>2017-05-29T11:00:59Z</time>
      </trkpt>
      <trkpt lat="43.97129" lon="5.16565">
        <ele>466.86</ele>
        <time>2017-05-29T11:01:13Z</time>
      </trkpt>
      <trkpt lat="43.97133" lon="5.1656">
        <ele>466.38</ele>
        <time>2017-05-29T11:01:27Z</time>
      </trkpt>
      <trkpt lat="43.97139" lon="5.16555">
        <ele>466.38</ele>
        <time>2017-05-29T11:01:47Z</time>
      </trkpt>
      <trkpt lat="43.97141" lon="5.16555">
        <ele>466.38</ele>
        <time>2017-05-29T11:02:04Z</time>
      </trkpt>
      <trkpt lat="43.97142" lon="5.16553">
        <ele>467.82</ele>
        <time>2017-05-29T11:02:08Z</time>
      </trkpt>
      <trkpt lat="43.97147" lon="5.16549">
        <ele>469.74</ele>
        <time>2017-05-29T11:02:25Z</time>
      </trkpt>
      <trkpt lat="43.9715" lon="5.16547">
        <ele>470.22</ele>
        <time>2017-05-29T11:02:45Z</time>
      </trkpt>
      <trkpt lat="43.97151" lon="5.16542">
        <ele>471.66</ele>
        <time>2017-05-29T11:03:00Z</time>
      </trkpt>
      <trkpt lat="43.97156" lon="5.16541">
        <ele>473.59</ele>
        <time>2017-05-29T11:03:15Z</time>
      </trkpt>
      <trkpt lat="43.97159" lon="5.16539">
        <ele>475.03</ele>
        <time>2017-05-29T11:03:29Z</time>
      </trkpt>
      <trkpt lat="43.97162" lon="5.16536">
        <ele>476.47</ele>
        <time>2017-05-29T11:03:42Z</time>
      </trkpt>
      <trkpt lat="43.97165" lon="5.16535">
        <ele>478.39</ele>
        <time>2017-05-29T11:03:56Z</time>
      </trkpt>
      <trkpt lat="43.97171" lon="5.16532">
        <ele>478.39</ele>
        <time>2017-05-29T11:04:09Z</time>
      </trkpt>
      <trkpt lat="43.97175" lon="5.16529">
        <ele>478.39</ele>
        <time>2017-05-29T11:04:20Z</time>
      </trkpt>
      <trkpt lat="43.9718" lon="5.16523">
        <ele>478.87</ele>
        <time>2017-05-29T11:04:35Z</time>
      </trkpt>
      <trkpt lat="43.97187" lon="5.16519">
        <ele>478.87</ele>
        <time>2017-05-29T11:04:49Z</time>
      </trkpt>
      <trkpt lat="43.97192" lon="5.16515">
        <ele>478.87</ele>
        <time>2017-05-29T11:04:59Z</time>
      </trkpt>
      <trkpt lat="43.97194" lon="5.16503">
        <ele>480.32</ele>
        <time>2017-05-29T11:05:14Z</time>
      </trkpt>
      <trkpt lat="43.97198" lon="5.16491">
        <ele>481.28</ele>
        <time>2017-05-29T11:05:29Z</time>
      </trkpt>
      <trkpt lat="43.97202" lon="5.1648">
        <ele>482.24</ele>
        <time>2017-05-29T11:05:42Z</time>
      </trkpt>
      <trkpt lat="43.97209" lon="5.16464">
        <ele>485.12</ele>
        <time>2017-05-29T11:05:58Z</time>
      </trkpt>
      <trkpt lat="43.97216" lon="5.1646">
        <ele>484.64</ele>
        <time>2017-05-29T11:06:14Z</time>
      </trkpt>
      <trkpt lat="43.97214" lon="5.16462">
        <ele>484.64</ele>
        <time>2017-05-29T11:06:39Z</time>
      </trkpt>
      <trkpt lat="43.97215" lon="5.16464">
        <ele>485.12</ele>
        <time>2017-05-29T11:06:56Z</time>
      </trkpt>
      <trkpt lat="43.97216" lon="5.16464">
        <ele>481.76</ele>
        <time>2017-05-29T11:07:16Z</time>
      </trkpt>
      <trkpt lat="43.97216" lon="5.16464">
        <ele>481.76</ele>
        <time>2017-05-29T11:07:17Z</time>
      </trkpt>
      <trkpt lat="43.97216" lon="5.16464">
        <ele>484.64</ele>
        <time>2017-05-29T11:07:19Z</time>
      </trkpt>
      <trkpt lat="43.97221" lon="5.16451">
        <ele>484.64</ele>
        <time>2017-05-29T11:07:34Z</time>
      </trkpt>
      <trkpt lat="43.97223" lon="5.16447">
        <ele>486.08</ele>
        <time>2017-05-29T11:07:39Z</time>
      </trkpt>
      <trkpt lat="43.97227" lon="5.16446">
        <ele>486.08</ele>
        <time>2017-05-29T11:07:58Z</time>
      </trkpt>
      <trkpt lat="43.97226" lon="5.16448">
        <ele>486.56</ele>
        <time>2017-05-29T11:08:22Z</time>
      </trkpt>
      <trkpt lat="43.97225" lon="5.16446">
        <ele>489.93</ele>
        <time>2017-05-29T11:08:41Z</time>
      </trkpt>
      <trkpt lat="43.97225" lon="5.16446">
        <ele>487.05</ele>
        <time>2017-05-29T11:08:42Z</time>
      </trkpt>
      <trkpt lat="43.97226" lon="5.16444">
        <ele>487.05</ele>
        <time>2017-05-29T11:09:00Z</time>
      </trkpt>
      <trkpt lat="43.97224" lon="5.16444">
        <ele>486.56</ele>
        <time>2017-05-29T11:09:24Z</time>
      </trkpt>
      <trkpt lat="43.97227" lon="5.16444">
        <ele>486.56</ele>
        <time>2017-05-29T11:09:49Z</time>
      </trkpt>
      <trkpt lat="43.97229" lon="5.16447">
        <ele>486.56</ele>
        <time>2017-05-29T11:10:10Z</time>
      </trkpt>
      <trkpt lat="43.97227" lon="5.16447">
        <ele>488.49</ele>
        <time>2017-05-29T11:10:32Z</time>
      </trkpt>
      <trkpt lat="43.97228" lon="5.16441">
        <ele>486.56</ele>
        <time>2017-05-29T11:10:51Z</time>
      </trkpt>
      <trkpt lat="43.97232" lon="5.16431">
        <ele>488.01</ele>
        <time>2017-05-29T11:11:06Z</time>
      </trkpt>
      <trkpt lat="43.9724" lon="5.16421">
        <ele>490.89</ele>
        <time>2017-05-29T11:11:23Z</time>
      </trkpt>
      <trkpt lat="43.9725" lon="5.16413">
        <ele>492.81</ele>
        <time>2017-05-29T11:11:41Z</time>
      </trkpt>
      <trkpt lat="43.97259" lon="5.16406">
        <ele>494.26</ele>
        <time>2017-05-29T11:11:57Z</time>
      </trkpt>
      <trkpt lat="43.97264" lon="5.16401">
        <ele>496.18</ele>
        <time>2017-05-29T11:12:09Z</time>
      </trkpt>
      <trkpt lat="43.9727" lon="5.16395">
        <ele>498.58</ele>
        <time>2017-05-29T11:12:24Z</time>
      </trkpt>
      <trkpt lat="43.97275" lon="5.16389">
        <ele>500.98</ele>
        <time>2017-05-29T11:12:40Z</time>
      </trkpt>
      <trkpt lat="43.9728" lon="5.16382">
        <ele>503.87</ele>
        <time>2017-05-29T11:12:57Z</time>
      </trkpt>
      <trkpt lat="43.97287" lon="5.16378">
        <ele>505.79</ele>
        <time>2017-05-29T11:13:12Z</time>
      </trkpt>
      <trkpt lat="43.97298" lon="5.16377">
        <ele>507.23</ele>
        <time>2017-05-29T11:13:30Z</time>
      </trkpt>
      <trkpt lat="43.97306" lon="5.16373">
        <ele>508.67</ele>
        <time>2017-05-29T11:13:43Z</time>
      </trkpt>
      <trkpt lat="43.97315" lon="5.16367">
        <ele>509.64</ele>
        <time>2017-05-29T11:13:57Z</time>
      </trkpt>
      <trkpt lat="43.97322" lon="5.16362">
        <ele>510.12</ele>
        <time>2017-05-29T11:14:11Z</time>
      </trkpt>
      <trkpt lat="43.97331" lon="5.1635">
        <ele>510.12</ele>
        <time>2017-05-29T11:14:27Z</time>
      </trkpt>
      <trkpt lat="43.97337" lon="5.16341">
        <ele>510.6</ele>
        <time>2017-05-29T11:14:42Z</time>
      </trkpt>
      <trkpt lat="43.97337" lon="5.16341">
        <ele>510.6</ele>
        <time>2017-05-29T11:15:03Z</time>
      </trkpt>
      <trkpt lat="43.97338" lon="5.16343">
        <ele>511.08</ele>
        <time>2017-05-29T11:15:31Z</time>
      </trkpt>
      <trkpt lat="43.97337" lon="5.16343">
        <ele>511.08</ele>
        <time>2017-05-29T11:15:49Z</time>
      </trkpt>
      <trkpt lat="43.97338" lon="5.1634">
        <ele>511.56</ele>
        <time>2017-05-29T11:16:11Z</time>
      </trkpt>
      <trkpt lat="43.97339" lon="5.16341">
        <ele>511.56</ele>
        <time>2017-05-29T11:16:39Z</time>
      </trkpt>
      <trkpt lat="43.97338" lon="5.1634">
        <ele>511.56</ele>
        <time>2017-05-29T11:17:02Z</time>
      </trkpt>
      <trkpt lat="43.9734" lon="5.16332">
        <ele>511.56</ele>
        <time>2017-05-29T11:17:25Z</time>
      </trkpt>
      <trkpt lat="43.97345" lon="5.16321">
        <ele>513</ele>
        <time>2017-05-29T11:17:40Z</time>
      </trkpt>
      <trkpt lat="43.9735" lon="5.16309">
        <ele>514.44</ele>
        <time>2017-05-29T11:17:54Z</time>
      </trkpt>
      <trkpt lat="43.97354" lon="5.16298">
        <ele>514.92</ele>
        <time>2017-05-29T11:18:10Z</time>
      </trkpt>
      <trkpt lat="43.97356" lon="5.16295">
        <ele>515.4</ele>
        <time>2017-05-29T11:18:22Z</time>
      </trkpt>
      <trkpt lat="43.97363" lon="5.1629">
        <ele>513.96</ele>
        <time>2017-05-29T11:18:39Z</time>
      </trkpt>
      <trkpt lat="43.97365" lon="5.16282">
        <ele>513.48</ele>
        <time>2017-05-29T11:18:52Z</time>
      </trkpt>
      <trkpt lat="43.97365" lon="5.1628">
        <ele>514.44</ele>
        <time>2017-05-29T11:18:56Z</time>
      </trkpt>
      <trkpt lat="43.97365" lon="5.16276">
        <ele>515.4</ele>
        <time>2017-05-29T11:19:11Z</time>
      </trkpt>
      <trkpt lat="43.97366" lon="5.1627">
        <ele>513.96</ele>
        <time>2017-05-29T11:19:26Z</time>
      </trkpt>
      <trkpt lat="43.97364" lon="5.16263">
        <ele>512.52</ele>
        <time>2017-05-29T11:19:40Z</time>
      </trkpt>
      <trkpt lat="43.97364" lon="5.16258">
        <ele>510.6</ele>
        <time>2017-05-29T11:19:54Z</time>
      </trkpt>
      <trkpt lat="43.97366" lon="5.16256">
        <ele>509.16</ele>
        <time>2017-05-29T11:20:08Z</time>
      </trkpt>
      <trkpt lat="43.97367" lon="5.1625">
        <ele>507.23</ele>
        <time>2017-05-29T11:20:21Z</time>
      </trkpt>
      <trkpt lat="43.97364" lon="5.16243">
        <ele>506.75</ele>
        <time>2017-05-29T11:20:35Z</time>
      </trkpt>
      <trkpt lat="43.97362" lon="5.16234">
        <ele>504.83</ele>
        <time>2017-05-29T11:20:53Z</time>
      </trkpt>
      <trkpt lat="43.97359" lon="5.16227">
        <ele>502.43</ele>
        <time>2017-05-29T11:21:08Z</time>
      </trkpt>
      <trkpt lat="43.97356" lon="5.16217">
        <ele>500.02</ele>
        <time>2017-05-29T11:21:26Z</time>
      </trkpt>
      <trkpt lat="43.97353" lon="5.16206">
        <ele>497.62</ele>
        <time>2017-05-29T11:21:43Z</time>
      </trkpt>
      <trkpt lat="43.97351" lon="5.16195">
        <ele>495.22</ele>
        <time>2017-05-29T11:22:00Z</time>
      </trkpt>
      <trkpt lat="43.97351" lon="5.16188">
        <ele>493.29</ele>
        <time>2017-05-29T11:22:15Z</time>
      </trkpt>
      <trkpt lat="43.9735" lon="5.16181">
        <ele>492.33</ele>
        <time>2017-05-29T11:22:28Z</time>
      </trkpt>
      <trkpt lat="43.9735" lon="5.16171">
        <ele>489.93</ele>
        <time>2017-05-29T11:22:42Z</time>
      </trkpt>
      <trkpt lat="43.97346" lon="5.16163">
        <ele>488.97</ele>
        <time>2017-05-29T11:22:57Z</time>
      </trkpt>
      <trkpt lat="43.97342" lon="5.16152">
        <ele>489.93</ele>
        <time>2017-05-29T11:23:08Z</time>
      </trkpt>
      <trkpt lat="43.97336" lon="5.16138">
        <ele>491.85</ele>
        <time>2017-05-29T11:23:24Z</time>
      </trkpt>
      <trkpt lat="43.97336" lon="5.16118">
        <ele>491.37</ele>
        <time>2017-05-29T11:23:41Z</time>
      </trkpt>
      <trkpt lat="43.97334" lon="5.16102">
        <ele>491.37</ele>
        <time>2017-05-29T11:23:58Z</time>
      </trkpt>
      <trkpt lat="43.97331" lon="5.16087">
        <ele>491.37</ele>
        <time>2017-05-29T11:24:14Z</time>
      </trkpt>
      <trkpt lat="43.97331" lon="5.16073">
        <ele>491.37</ele>
        <time>2017-05-29T11:24:30Z</time>
      </trkpt>
      <trkpt lat="43.97331" lon="5.1607">
        <ele>491.37</ele>
        <time>2017-05-29T11:24:32Z</time>
      </trkpt>
      <trkpt lat="43.9733" lon="5.16068">
        <ele>490.41</ele>
        <time>2017-05-29T11:24:34Z</time>
      </trkpt>
      <trkpt lat="43.97326" lon="5.16058">
        <ele>491.85</ele>
        <time>2017-05-29T11:24:48Z</time>
      </trkpt>
      <trkpt lat="43.97326" lon="5.1605">
        <ele>493.29</ele>
        <time>2017-05-29T11:25:03Z</time>
      </trkpt>
      <trkpt lat="43.97325" lon="5.16053">
        <ele>492.81</ele>
        <time>2017-05-29T11:25:27Z</time>
      </trkpt>
      <trkpt lat="43.97325" lon="5.16046">
        <ele>491.37</ele>
        <time>2017-05-29T11:25:47Z</time>
      </trkpt>
      <trkpt lat="43.97325" lon="5.1604">
        <ele>490.89</ele>
        <time>2017-05-29T11:26:05Z</time>
      </trkpt>
      <trkpt lat="43.97323" lon="5.16035">
        <ele>490.41</ele>
        <time>2017-05-29T11:26:18Z</time>
      </trkpt>
      <trkpt lat="43.97325" lon="5.16032">
        <ele>489.45</ele>
        <time>2017-05-29T11:26:34Z</time>
      </trkpt>
      <trkpt lat="43.97328" lon="5.16023">
        <ele>488.01</ele>
        <time>2017-05-29T11:26:49Z</time>
      </trkpt>
      <trkpt lat="43.97329" lon="5.16018">
        <ele>486.56</ele>
        <time>2017-05-29T11:27:02Z</time>
      </trkpt>
      <trkpt lat="43.97331" lon="5.16014">
        <ele>485.12</ele>
        <time>2017-05-29T11:27:17Z</time>
      </trkpt>
      <trkpt lat="43.97333" lon="5.16009">
        <ele>483.2</ele>
        <time>2017-05-29T11:27:35Z</time>
      </trkpt>
      <trkpt lat="43.97333" lon="5.16008">
        <ele>482.72</ele>
        <time>2017-05-29T11:27:37Z</time>
      </trkpt>
      <trkpt lat="43.97333" lon="5.15996">
        <ele>482.24</ele>
        <time>2017-05-29T11:27:51Z</time>
      </trkpt>
      <trkpt lat="43.97335" lon="5.15998">
        <ele>482.24</ele>
        <time>2017-05-29T11:28:17Z</time>
      </trkpt>
      <trkpt lat="43.97334" lon="5.15998">
        <ele>481.76</ele>
        <time>2017-05-29T11:28:37Z</time>
      </trkpt>
      <trkpt lat="43.97333" lon="5.16001">
        <ele>483.2</ele>
        <time>2017-05-29T11:28:45Z</time>
      </trkpt>
      <trkpt lat="43.97332" lon="5.16001">
        <ele>483.2</ele>
        <time>2017-05-29T11:29:07Z</time>
      </trkpt>
      <trkpt lat="43.97333" lon="5.15999">
        <ele>482.72</ele>
        <time>2017-05-29T11:29:24Z</time>
      </trkpt>
      <trkpt lat="43.97333" lon="5.15999">
        <ele>482.24</ele>
        <time>2017-05-29T11:29:43Z</time>
      </trkpt>
      <trkpt lat="43.97333" lon="5.15996">
        <ele>482.24</ele>
        <time>2017-05-29T11:30:07Z</time>
      </trkpt>
      <trkpt lat="43.97335" lon="5.15983">
        <ele>481.76</ele>
        <time>2017-05-29T11:30:21Z</time>
      </trkpt>
      <trkpt lat="43.97332" lon="5.15966">
        <ele>479.84</ele>
        <time>2017-05-29T11:30:38Z</time>
      </trkpt>
      <trkpt lat="43.97333" lon="5.15958">
        <ele>478.87</ele>
        <time>2017-05-29T11:30:53Z</time>
      </trkpt>
      <trkpt lat="43.97333" lon="5.1594">
        <ele>477.43</ele>
        <time>2017-05-29T11:31:09Z</time>
      </trkpt>
      <trkpt lat="43.97329" lon="5.15924">
        <ele>475.51</ele>
        <time>2017-05-29T11:31:22Z</time>
      </trkpt>
      <trkpt lat="43.97328" lon="5.15903">
        <ele>472.63</ele>
        <time>2017-05-29T11:31:40Z</time>
      </trkpt>
      <trkpt lat="43.97324" lon="5.15888">
        <ele>471.18</ele>
        <time>2017-05-29T11:31:56Z</time>
      </trkpt>
      <trkpt lat="43.97319" lon="5.15874">
        <ele>468.78</ele>
        <time>2017-05-29T11:32:12Z</time>
      </trkpt>
      <trkpt lat="43.97317" lon="5.15862">
        <ele>467.34</ele>
        <time>2017-05-29T11:32:26Z</time>
      </trkpt>
      <trkpt lat="43.97322" lon="5.15846">
        <ele>464.93</ele>
        <time>2017-05-29T11:32:43Z</time>
      </trkpt>
      <trkpt lat="43.97326" lon="5.15834">
        <ele>463.97</ele>
        <time>2017-05-29T11:32:55Z</time>
      </trkpt>
      <trkpt lat="43.97328" lon="5.15827">
        <ele>463.49</ele>
        <time>2017-05-29T11:33:00Z</time>
      </trkpt>
      <trkpt lat="43.97331" lon="5.15805">
        <ele>461.57</ele>
        <time>2017-05-29T11:33:16Z</time>
      </trkpt>
      <trkpt lat="43.97334" lon="5.15785">
        <ele>460.13</ele>
        <time>2017-05-29T11:33:31Z</time>
      </trkpt>
      <trkpt lat="43.97349" lon="5.15768">
        <ele>459.17</ele>
        <time>2017-05-29T11:33:51Z</time>
      </trkpt>
      <trkpt lat="43.97359" lon="5.1575">
        <ele>457.72</ele>
        <time>2017-05-29T11:34:07Z</time>
      </trkpt>
      <trkpt lat="43.9736" lon="5.15748">
        <ele>457.72</ele>
        <time>2017-05-29T11:34:09Z</time>
      </trkpt>
      <trkpt lat="43.97368" lon="5.15724">
        <ele>456.28</ele>
        <time>2017-05-29T11:34:26Z</time>
      </trkpt>
      <trkpt lat="43.97372" lon="5.15704">
        <ele>455.32</ele>
        <time>2017-05-29T11:34:43Z</time>
      </trkpt>
      <trkpt lat="43.97371" lon="5.15689">
        <ele>454.84</ele>
        <time>2017-05-29T11:35:01Z</time>
      </trkpt>
      <trkpt lat="43.97372" lon="5.15686">
        <ele>454.84</ele>
        <time>2017-05-29T11:35:23Z</time>
      </trkpt>
      <trkpt lat="43.97375" lon="5.1568">
        <ele>454.36</ele>
        <time>2017-05-29T11:35:37Z</time>
      </trkpt>
      <trkpt lat="43.97373" lon="5.15682">
        <ele>454.36</ele>
        <time>2017-05-29T11:36:04Z</time>
      </trkpt>
      <trkpt lat="43.97373" lon="5.15679">
        <ele>454.36</ele>
        <time>2017-05-29T11:36:21Z</time>
      </trkpt>
      <trkpt lat="43.97374" lon="5.15668">
        <ele>454.36</ele>
        <time>2017-05-29T11:36:36Z</time>
      </trkpt>
      <trkpt lat="43.97374" lon="5.15668">
        <ele>454.36</ele>
        <time>2017-05-29T11:36:55Z</time>
      </trkpt>
      <trkpt lat="43.97375" lon="5.15657">
        <ele>453.4</ele>
        <time>2017-05-29T11:37:17Z</time>
      </trkpt>
      <trkpt lat="43.97376" lon="5.15638">
        <ele>451.96</ele>
        <time>2017-05-29T11:37:34Z</time>
      </trkpt>
      <trkpt lat="43.97376" lon="5.15619">
        <ele>451.48</ele>
        <time>2017-05-29T11:37:51Z</time>
      </trkpt>
      <trkpt lat="43.97373" lon="5.15599">
        <ele>450.52</ele>
        <time>2017-05-29T11:38:09Z</time>
      </trkpt>
      <trkpt lat="43.9737" lon="5.15584">
        <ele>449.55</ele>
        <time>2017-05-29T11:38:23Z</time>
      </trkpt>
      <trkpt lat="43.97366" lon="5.15566">
        <ele>448.59</ele>
        <time>2017-05-29T11:38:39Z</time>
      </trkpt>
      <trkpt lat="43.97366" lon="5.15562">
        <ele>448.11</ele>
        <time>2017-05-29T11:38:42Z</time>
      </trkpt>
      <trkpt lat="43.97364" lon="5.15544">
        <ele>447.15</ele>
        <time>2017-05-29T11:38:56Z</time>
      </trkpt>
      <trkpt lat="43.97365" lon="5.15523">
        <ele>446.19</ele>
        <time>2017-05-29T11:39:12Z</time>
      </trkpt>
      <trkpt lat="43.97367" lon="5.15497">
        <ele>444.75</ele>
        <time>2017-05-29T11:39:30Z</time>
      </trkpt>
      <trkpt lat="43.9737" lon="5.15465">
        <ele>443.79</ele>
        <time>2017-05-29T11:39:51Z</time>
      </trkpt>
      <trkpt lat="43.97373" lon="5.15445">
        <ele>443.31</ele>
        <time>2017-05-29T11:40:09Z</time>
      </trkpt>
      <trkpt lat="43.97374" lon="5.1544">
        <ele>442.82</ele>
        <time>2017-05-29T11:40:25Z</time>
      </trkpt>
      <trkpt lat="43.97373" lon="5.15416">
        <ele>442.34</ele>
        <time>2017-05-29T11:40:41Z</time>
      </trkpt>
      <trkpt lat="43.97369" lon="5.15391">
        <ele>442.34</ele>
        <time>2017-05-29T11:41:00Z</time>
      </trkpt>
      <trkpt lat="43.9737" lon="5.15374">
        <ele>441.86</ele>
        <time>2017-05-29T11:41:14Z</time>
      </trkpt>
      <trkpt lat="43.9737" lon="5.15353">
        <ele>440.42</ele>
        <time>2017-05-29T11:41:30Z</time>
      </trkpt>
      <trkpt lat="43.97369" lon="5.1534">
        <ele>440.42</ele>
        <time>2017-05-29T11:41:40Z</time>
      </trkpt>
      <trkpt lat="43.97376" lon="5.15315">
        <ele>438.98</ele>
        <time>2017-05-29T11:41:59Z</time>
      </trkpt>
      <trkpt lat="43.97378" lon="5.15291">
        <ele>438.02</ele>
        <time>2017-05-29T11:42:16Z</time>
      </trkpt>
      <trkpt lat="43.9738" lon="5.15262">
        <ele>436.58</ele>
        <time>2017-05-29T11:42:36Z</time>
      </trkpt>
      <trkpt lat="43.97379" lon="5.15242">
        <ele>436.1</ele>
        <time>2017-05-29T11:42:52Z</time>
      </trkpt>
      <trkpt lat="43.97385" lon="5.15225">
        <ele>435.13</ele>
        <time>2017-05-29T11:43:08Z</time>
      </trkpt>
      <trkpt lat="43.97393" lon="5.15212">
        <ele>433.69</ele>
        <time>2017-05-29T11:43:22Z</time>
      </trkpt>
      <trkpt lat="43.97401" lon="5.15194">
        <ele>432.73</ele>
        <time>2017-05-29T11:43:38Z</time>
      </trkpt>
      <trkpt lat="43.97408" lon="5.15176">
        <ele>431.77</ele>
        <time>2017-05-29T11:43:55Z</time>
      </trkpt>
      <trkpt lat="43.97412" lon="5.15163">
        <ele>430.33</ele>
        <time>2017-05-29T11:44:08Z</time>
      </trkpt>
      <trkpt lat="43.97421" lon="5.15153">
        <ele>429.85</ele>
        <time>2017-05-29T11:44:22Z</time>
      </trkpt>
      <trkpt lat="43.9743" lon="5.15143">
        <ele>428.89</ele>
        <time>2017-05-29T11:44:38Z</time>
      </trkpt>
      <trkpt lat="43.97443" lon="5.15128">
        <ele>427.44</ele>
        <time>2017-05-29T11:44:56Z</time>
      </trkpt>
      <trkpt lat="43.97449" lon="5.15122">
        <ele>426.48</ele>
        <time>2017-05-29T11:45:08Z</time>
      </trkpt>
      <trkpt lat="43.9745" lon="5.1512">
        <ele>426.96</ele>
        <time>2017-05-29T11:45:23Z</time>
      </trkpt>
      <trkpt lat="43.97452" lon="5.15123">
        <ele>426</ele>
        <time>2017-05-29T11:45:40Z</time>
      </trkpt>
      <trkpt lat="43.97451" lon="5.15121">
        <ele>427.44</ele>
        <time>2017-05-29T11:45:51Z</time>
      </trkpt>
      <trkpt lat="43.97454" lon="5.15119">
        <ele>426</ele>
        <time>2017-05-29T11:46:04Z</time>
      </trkpt>
      <trkpt lat="43.97464" lon="5.1512">
        <ele>425.04</ele>
        <time>2017-05-29T11:46:21Z</time>
      </trkpt>
      <trkpt lat="43.97476" lon="5.15117">
        <ele>422.16</ele>
        <time>2017-05-29T11:46:37Z</time>
      </trkpt>
      <trkpt lat="43.97489" lon="5.15116">
        <ele>420.23</ele>
        <time>2017-05-29T11:46:55Z</time>
      </trkpt>
      <trkpt lat="43.97501" lon="5.1512">
        <ele>418.79</ele>
        <time>2017-05-29T11:47:10Z</time>
      </trkpt>
      <trkpt lat="43.97513" lon="5.15128">
        <ele>416.87</ele>
        <time>2017-05-29T11:47:27Z</time>
      </trkpt>
      <trkpt lat="43.97526" lon="5.1514">
        <ele>414.95</ele>
        <time>2017-05-29T11:47:44Z</time>
      </trkpt>
      <trkpt lat="43.97535" lon="5.1515">
        <ele>413.02</ele>
        <time>2017-05-29T11:47:59Z</time>
      </trkpt>
      <trkpt lat="43.97541" lon="5.15161">
        <ele>411.1</ele>
        <time>2017-05-29T11:48:13Z</time>
      </trkpt>
      <trkpt lat="43.9755" lon="5.15163">
        <ele>409.18</ele>
        <time>2017-05-29T11:48:30Z</time>
      </trkpt>
      <trkpt lat="43.97555" lon="5.15161">
        <ele>406.77</ele>
        <time>2017-05-29T11:48:44Z</time>
      </trkpt>
      <trkpt lat="43.97561" lon="5.15158">
        <ele>404.85</ele>
        <time>2017-05-29T11:49:02Z</time>
      </trkpt>
      <trkpt lat="43.97567" lon="5.1516">
        <ele>403.41</ele>
        <time>2017-05-29T11:49:17Z</time>
      </trkpt>
      <trkpt lat="43.97574" lon="5.15162">
        <ele>401.01</ele>
        <time>2017-05-29T11:49:32Z</time>
      </trkpt>
      <trkpt lat="43.97582" lon="5.15161">
        <ele>399.57</ele>
        <time>2017-05-29T11:49:47Z</time>
      </trkpt>
      <trkpt lat="43.97591" lon="5.15156">
        <ele>397.16</ele>
        <time>2017-05-29T11:50:05Z</time>
      </trkpt>
      <trkpt lat="43.97598" lon="5.15155">
        <ele>395.72</ele>
        <time>2017-05-29T11:50:21Z</time>
      </trkpt>
      <trkpt lat="43.97607" lon="5.1516">
        <ele>392.84</ele>
        <time>2017-05-29T11:50:38Z</time>
      </trkpt>
      <trkpt lat="43.9761" lon="5.15161">
        <ele>391.87</ele>
        <time>2017-05-29T11:50:53Z</time>
      </trkpt>
      <trkpt lat="43.97617" lon="5.1516">
        <ele>389.95</ele>
        <time>2017-05-29T11:51:09Z</time>
      </trkpt>
      <trkpt lat="43.97619" lon="5.15162">
        <ele>388.51</ele>
        <time>2017-05-29T11:51:23Z</time>
      </trkpt>
      <trkpt lat="43.97619" lon="5.15161">
        <ele>388.51</ele>
        <time>2017-05-29T11:51:35Z</time>
      </trkpt>
      <trkpt lat="43.97616" lon="5.15163">
        <ele>388.51</ele>
        <time>2017-05-29T11:52:00Z</time>
      </trkpt>
      <trkpt lat="43.97616" lon="5.15164">
        <ele>388.51</ele>
        <time>2017-05-29T11:52:31Z</time>
      </trkpt>
      <trkpt lat="43.97616" lon="5.15164">
        <ele>388.51</ele>
        <time>2017-05-29T11:53:05Z</time>
      </trkpt>
      <trkpt lat="43.97621" lon="5.15163">
        <ele>388.51</ele>
        <time>2017-05-29T11:53:32Z</time>
      </trkpt>
      <trkpt lat="43.97622" lon="5.15162">
        <ele>388.51</ele>
        <time>2017-05-29T11:53:56Z</time>
      </trkpt>
      <trkpt lat="43.97624" lon="5.15165">
        <ele>388.51</ele>
        <time>2017-05-29T11:54:18Z</time>
      </trkpt>
      <trkpt lat="43.97622" lon="5.15169">
        <ele>383.22</ele>
        <time>2017-05-29T11:54:38Z</time>
      </trkpt>
      <trkpt lat="43.97622" lon="5.15169">
        <ele>396.2</ele>
        <time>2017-05-29T11:54:39Z</time>
      </trkpt>
      <trkpt lat="43.97622" lon="5.15169">
        <ele>389.95</ele>
        <time>2017-05-29T11:54:40Z</time>
      </trkpt>
      <trkpt lat="43.97625" lon="5.15169">
        <ele>388.03</ele>
        <time>2017-05-29T11:54:57Z</time>
      </trkpt>
      <trkpt lat="43.9763" lon="5.1517">
        <ele>387.07</ele>
        <time>2017-05-29T11:55:12Z</time>
      </trkpt>
      <trkpt lat="43.97634" lon="5.1517">
        <ele>386.11</ele>
        <time>2017-05-29T11:55:28Z</time>
      </trkpt>
      <trkpt lat="43.9764" lon="5.1517">
        <ele>383.22</ele>
        <time>2017-05-29T11:55:43Z</time>
      </trkpt>
      <trkpt lat="43.9765" lon="5.15174">
        <ele>381.78</ele>
        <time>2017-05-29T11:55:59Z</time>
      </trkpt>
      <trkpt lat="43.97662" lon="5.15177">
        <ele>379.86</ele>
        <time>2017-05-29T11:56:16Z</time>
      </trkpt>
      <trkpt lat="43.97672" lon="5.15183">
        <ele>377.94</ele>
        <time>2017-05-29T11:56:32Z</time>
      </trkpt>
      <trkpt lat="43.97686" lon="5.15196">
        <ele>377.94</ele>
        <time>2017-05-29T11:56:50Z</time>
      </trkpt>
      <trkpt lat="43.9769" lon="5.15213">
        <ele>376.01</ele>
        <time>2017-05-29T11:57:08Z</time>
      </trkpt>
      <trkpt lat="43.97693" lon="5.15221">
        <ele>374.57</ele>
        <time>2017-05-29T11:57:25Z</time>
      </trkpt>
      <trkpt lat="43.97696" lon="5.15227">
        <ele>373.13</ele>
        <time>2017-05-29T11:57:41Z</time>
      </trkpt>
      <trkpt lat="43.97698" lon="5.15237">
        <ele>370.73</ele>
        <time>2017-05-29T11:57:56Z</time>
      </trkpt>
      <trkpt lat="43.97705" lon="5.15248">
        <ele>367.84</ele>
        <time>2017-05-29T11:58:14Z</time>
      </trkpt>
      <trkpt lat="43.97716" lon="5.1526">
        <ele>365.44</ele>
        <time>2017-05-29T11:58:34Z</time>
      </trkpt>
      <trkpt lat="43.97721" lon="5.15272">
        <ele>362.55</ele>
        <time>2017-05-29T11:58:53Z</time>
      </trkpt>
      <trkpt lat="43.97727" lon="5.15283">
        <ele>360.15</ele>
        <time>2017-05-29T11:59:08Z</time>
      </trkpt>
      <trkpt lat="43.97734" lon="5.15294">
        <ele>356.79</ele>
        <time>2017-05-29T11:59:26Z</time>
      </trkpt>
      <trkpt lat="43.97744" lon="5.15301">
        <ele>354.38</ele>
        <time>2017-05-29T11:59:44Z</time>
      </trkpt>
      <trkpt lat="43.97754" lon="5.15317">
        <ele>351.98</ele>
        <time>2017-05-29T12:00:02Z</time>
      </trkpt>
      <trkpt lat="43.97766" lon="5.15332">
        <ele>349.58</ele>
        <time>2017-05-29T12:00:21Z</time>
      </trkpt>
      <trkpt lat="43.97776" lon="5.15344">
        <ele>346.69</ele>
        <time>2017-05-29T12:00:39Z</time>
      </trkpt>
      <trkpt lat="43.97788" lon="5.15345">
        <ele>344.77</ele>
        <time>2017-05-29T12:00:57Z</time>
      </trkpt>
      <trkpt lat="43.97801" lon="5.1535">
        <ele>341.89</ele>
        <time>2017-05-29T12:01:16Z</time>
      </trkpt>
      <trkpt lat="43.9781" lon="5.15359">
        <ele>339.48</ele>
        <time>2017-05-29T12:01:33Z</time>
      </trkpt>
      <trkpt lat="43.97819" lon="5.15369">
        <ele>336.6</ele>
        <time>2017-05-29T12:01:51Z</time>
      </trkpt>
      <trkpt lat="43.9783" lon="5.15375">
        <ele>333.23</ele>
        <time>2017-05-29T12:02:07Z</time>
      </trkpt>
      <trkpt lat="43.97843" lon="5.15377">
        <ele>330.83</ele>
        <time>2017-05-29T12:02:25Z</time>
      </trkpt>
      <trkpt lat="43.97855" lon="5.15386">
        <ele>328.43</ele>
        <time>2017-05-29T12:02:43Z</time>
      </trkpt>
      <trkpt lat="43.97867" lon="5.15393">
        <ele>326.99</ele>
        <time>2017-05-29T12:02:58Z</time>
      </trkpt>
      <trkpt lat="43.9788" lon="5.154">
        <ele>324.58</ele>
        <time>2017-05-29T12:03:15Z</time>
      </trkpt>
      <trkpt lat="43.97893" lon="5.15399">
        <ele>323.14</ele>
        <time>2017-05-29T12:03:33Z</time>
      </trkpt>
      <trkpt lat="43.97909" lon="5.15405">
        <ele>320.26</ele>
        <time>2017-05-29T12:03:52Z</time>
      </trkpt>
      <trkpt lat="43.97925" lon="5.15411">
        <ele>318.81</ele>
        <time>2017-05-29T12:04:12Z</time>
      </trkpt>
      <trkpt lat="43.97927" lon="5.15412">
        <ele>318.33</ele>
        <time>2017-05-29T12:04:34Z</time>
      </trkpt>
      <trkpt lat="43.97927" lon="5.15414">
        <ele>317.85</ele>
        <time>2017-05-29T12:04:59Z</time>
      </trkpt>
      <trkpt lat="43.97929" lon="5.15414">
        <ele>317.37</ele>
        <time>2017-05-29T12:05:22Z</time>
      </trkpt>
      <trkpt lat="43.97931" lon="5.15413">
        <ele>318.33</ele>
        <time>2017-05-29T12:05:39Z</time>
      </trkpt>
      <trkpt lat="43.97937" lon="5.15418">
        <ele>317.37</ele>
        <time>2017-05-29T12:05:58Z</time>
      </trkpt>
      <trkpt lat="43.97952" lon="5.15428">
        <ele>315.45</ele>
        <time>2017-05-29T12:06:15Z</time>
      </trkpt>
      <trkpt lat="43.97968" lon="5.15439">
        <ele>313.53</ele>
        <time>2017-05-29T12:06:35Z</time>
      </trkpt>
      <trkpt lat="43.97988" lon="5.15449">
        <ele>310.64</ele>
        <time>2017-05-29T12:06:58Z</time>
      </trkpt>
      <trkpt lat="43.98002" lon="5.15445">
        <ele>307.76</ele>
        <time>2017-05-29T12:07:18Z</time>
      </trkpt>
      <trkpt lat="43.98012" lon="5.15429">
        <ele>304.88</ele>
        <time>2017-05-29T12:07:37Z</time>
      </trkpt>
      <trkpt lat="43.98025" lon="5.15427">
        <ele>302.47</ele>
        <time>2017-05-29T12:07:55Z</time>
      </trkpt>
      <trkpt lat="43.98038" lon="5.15429">
        <ele>299.59</ele>
        <time>2017-05-29T12:08:14Z</time>
      </trkpt>
      <trkpt lat="43.98052" lon="5.15431">
        <ele>296.7</ele>
        <time>2017-05-29T12:08:32Z</time>
      </trkpt>
      <trkpt lat="43.98069" lon="5.15432">
        <ele>293.82</ele>
        <time>2017-05-29T12:08:52Z</time>
      </trkpt>
      <trkpt lat="43.98084" lon="5.15427">
        <ele>290.94</ele>
        <time>2017-05-29T12:09:12Z</time>
      </trkpt>
      <trkpt lat="43.98097" lon="5.15428">
        <ele>287.57</ele>
        <time>2017-05-29T12:09:30Z</time>
      </trkpt>
      <trkpt lat="43.98116" lon="5.15427">
        <ele>285.65</ele>
        <time>2017-05-29T12:09:49Z</time>
      </trkpt>
      <trkpt lat="43.98122" lon="5.15425">
        <ele>284.21</ele>
        <time>2017-05-29T12:09:55Z</time>
      </trkpt>
      <trkpt lat="43.98142" lon="5.15421">
        <ele>281.8</ele>
        <time>2017-05-29T12:10:15Z</time>
      </trkpt>
      <trkpt lat="43.98157" lon="5.15417">
        <ele>279.88</ele>
        <time>2017-05-29T12:10:34Z</time>
      </trkpt>
      <trkpt lat="43.98173" lon="5.15416">
        <ele>276.52</ele>
        <time>2017-05-29T12:10:53Z</time>
      </trkpt>
      <trkpt lat="43.98182" lon="5.15417">
        <ele>274.59</ele>
        <time>2017-05-29T12:11:10Z</time>
      </trkpt>
      <trkpt lat="43.98196" lon="5.15418">
        <ele>272.19</ele>
        <time>2017-05-29T12:11:28Z</time>
      </trkpt>
      <trkpt lat="43.98212" lon="5.15421">
        <ele>270.27</ele>
        <time>2017-05-29T12:11:47Z</time>
      </trkpt>
      <trkpt lat="43.98223" lon="5.15431">
        <ele>267.86</ele>
        <time>2017-05-29T12:12:07Z</time>
      </trkpt>
      <trkpt lat="43.98224" lon="5.15438">
        <ele>266.42</ele>
        <time>2017-05-29T12:12:22Z</time>
      </trkpt>
      <trkpt lat="43.98225" lon="5.15442">
        <ele>264.5</ele>
        <time>2017-05-29T12:12:38Z</time>
      </trkpt>
      <trkpt lat="43.98222" lon="5.15442">
        <ele>267.38</ele>
        <time>2017-05-29T12:13:00Z</time>
      </trkpt>
      <trkpt lat="43.98225" lon="5.15449">
        <ele>264.98</ele>
        <time>2017-05-29T12:13:25Z</time>
      </trkpt>
      <trkpt lat="43.98208" lon="5.15447">
        <ele>264.98</ele>
        <time>2017-05-29T12:13:43Z</time>
      </trkpt>
      <trkpt lat="43.98199" lon="5.15448">
        <ele>264.98</ele>
        <time>2017-05-29T12:13:55Z</time>
      </trkpt>
      <trkpt lat="43.98179" lon="5.15448">
        <ele>265.94</ele>
        <time>2017-05-29T12:14:15Z</time>
      </trkpt>
      <trkpt lat="43.98163" lon="5.15457">
        <ele>266.42</ele>
        <time>2017-05-29T12:14:33Z</time>
      </trkpt>
      <trkpt lat="43.98152" lon="5.15468">
        <ele>266.9</ele>
        <time>2017-05-29T12:14:47Z</time>
      </trkpt>
      <trkpt lat="43.98134" lon="5.15486">
        <ele>266.9</ele>
        <time>2017-05-29T12:15:06Z</time>
      </trkpt>
      <trkpt lat="43.98116" lon="5.15504">
        <ele>266.9</ele>
        <time>2017-05-29T12:15:24Z</time>
      </trkpt>
      <trkpt lat="43.98103" lon="5.15517">
        <ele>267.38</ele>
        <time>2017-05-29T12:15:41Z</time>
      </trkpt>
      <trkpt lat="43.98093" lon="5.15528">
        <ele>267.38</ele>
        <time>2017-05-29T12:15:54Z</time>
      </trkpt>
      <trkpt lat="43.98083" lon="5.15542">
        <ele>267.38</ele>
        <time>2017-05-29T12:16:08Z</time>
      </trkpt>
      <trkpt lat="43.98075" lon="5.15554">
        <ele>267.38</ele>
        <time>2017-05-29T12:16:20Z</time>
      </trkpt>
      <trkpt lat="43.98062" lon="5.15572">
        <ele>266.9</ele>
        <time>2017-05-29T12:16:37Z</time>
      </trkpt>
      <trkpt lat="43.98048" lon="5.15587">
        <ele>266.9</ele>
        <time>2017-05-29T12:16:56Z</time>
      </trkpt>
      <trkpt lat="43.98033" lon="5.15594">
        <ele>266.42</ele>
        <time>2017-05-29T12:17:11Z</time>
      </trkpt>
      <trkpt lat="43.98016" lon="5.15601">
        <ele>265.94</ele>
        <time>2017-05-29T12:17:29Z</time>
      </trkpt>
      <trkpt lat="43.97992" lon="5.15613">
        <ele>266.42</ele>
        <time>2017-05-29T12:17:51Z</time>
      </trkpt>
      <trkpt lat="43.97978" lon="5.15628">
        <ele>266.42</ele>
        <time>2017-05-29T12:18:04Z</time>
      </trkpt>
      <trkpt lat="43.97961" lon="5.1565">
        <ele>265.94</ele>
        <time>2017-05-29T12:18:20Z</time>
      </trkpt>
      <trkpt lat="43.97948" lon="5.15669">
        <ele>265.94</ele>
        <time>2017-05-29T12:18:38Z</time>
      </trkpt>
      <trkpt lat="43.97942" lon="5.1569">
        <ele>266.9</ele>
        <time>2017-05-29T12:18:53Z</time>
      </trkpt>
      <trkpt lat="43.97941" lon="5.15694">
        <ele>266.9</ele>
        <time>2017-05-29T12:18:56Z</time>
      </trkpt>
      <trkpt lat="43.9794" lon="5.15702">
        <ele>265.46</ele>
        <time>2017-05-29T12:19:02Z</time>
      </trkpt>
      <trkpt lat="43.97936" lon="5.15727">
        <ele>265.46</ele>
        <time>2017-05-29T12:19:19Z</time>
      </trkpt>
      <trkpt lat="43.97936" lon="5.15734">
        <ele>265.46</ele>
        <time>2017-05-29T12:19:23Z</time>
      </trkpt>
      <trkpt lat="43.97937" lon="5.15755">
        <ele>264.98</ele>
        <time>2017-05-29T12:19:38Z</time>
      </trkpt>
      <trkpt lat="43.97941" lon="5.15777">
        <ele>264.98</ele>
        <time>2017-05-29T12:19:53Z</time>
      </trkpt>
      <trkpt lat="43.97942" lon="5.15798">
        <ele>264.02</ele>
        <time>2017-05-29T12:20:08Z</time>
      </trkpt>
      <trkpt lat="43.9794" lon="5.15817">
        <ele>264.02</ele>
        <time>2017-05-29T12:20:23Z</time>
      </trkpt>
      <trkpt lat="43.9794" lon="5.15822">
        <ele>265.46</ele>
        <time>2017-05-29T12:20:28Z</time>
      </trkpt>
      <trkpt lat="43.97937" lon="5.1583">
        <ele>265.94</ele>
        <time>2017-05-29T12:20:35Z</time>
      </trkpt>
      <trkpt lat="43.97934" lon="5.15832">
        <ele>265.94</ele>
        <time>2017-05-29T12:20:38Z</time>
      </trkpt>
      <trkpt lat="43.9792" lon="5.15841">
        <ele>266.42</ele>
        <time>2017-05-29T12:20:54Z</time>
      </trkpt>
      <trkpt lat="43.97912" lon="5.15837">
        <ele>266.42</ele>
        <time>2017-05-29T12:21:07Z</time>
      </trkpt>
      <trkpt lat="43.97909" lon="5.15835">
        <ele>265.46</ele>
        <time>2017-05-29T12:21:11Z</time>
      </trkpt>
      <trkpt lat="43.97898" lon="5.15836">
        <ele>266.42</ele>
        <time>2017-05-29T12:21:23Z</time>
      </trkpt>
      <trkpt lat="43.97886" lon="5.15838">
        <ele>266.42</ele>
        <time>2017-05-29T12:21:35Z</time>
      </trkpt>
      <trkpt lat="43.97872" lon="5.15842">
        <ele>266.9</ele>
        <time>2017-05-29T12:21:48Z</time>
      </trkpt>
      <trkpt lat="43.97859" lon="5.15849">
        <ele>267.38</ele>
        <time>2017-05-29T12:22:02Z</time>
      </trkpt>
      <trkpt lat="43.97849" lon="5.15854">
        <ele>268.35</ele>
        <time>2017-05-29T12:22:15Z</time>
      </trkpt>
      <trkpt lat="43.97838" lon="5.15863">
        <ele>269.79</ele>
        <time>2017-05-29T12:22:28Z</time>
      </trkpt>
      <trkpt lat="43.97833" lon="5.15874">
        <ele>269.79</ele>
        <time>2017-05-29T12:22:35Z</time>
      </trkpt>
      <trkpt lat="43.97823" lon="5.15886">
        <ele>269.31</ele>
        <time>2017-05-29T12:22:52Z</time>
      </trkpt>
      <trkpt lat="43.97823" lon="5.15888">
        <ele>265.94</ele>
        <time>2017-05-29T12:22:59Z</time>
      </trkpt>
      <trkpt lat="43.9782" lon="5.15893">
        <ele>268.83</ele>
        <time>2017-05-29T12:23:18Z</time>
      </trkpt>
      <trkpt lat="43.97821" lon="5.15895">
        <ele>268.35</ele>
        <time>2017-05-29T12:23:38Z</time>
      </trkpt>
      <trkpt lat="43.97821" lon="5.15896">
        <ele>266.9</ele>
        <time>2017-05-29T12:23:41Z</time>
      </trkpt>
      <trkpt lat="43.97826" lon="5.15899">
        <ele>267.38</ele>
        <time>2017-05-29T12:24:05Z</time>
      </trkpt>
      <trkpt lat="43.97817" lon="5.15907">
        <ele>267.38</ele>
        <time>2017-05-29T12:24:19Z</time>
      </trkpt>
      <trkpt lat="43.97805" lon="5.15919">
        <ele>269.31</ele>
        <time>2017-05-29T12:24:38Z</time>
      </trkpt>
      <trkpt lat="43.97801" lon="5.15926">
        <ele>268.83</ele>
        <time>2017-05-29T12:24:46Z</time>
      </trkpt>
      <trkpt lat="43.97797" lon="5.15931">
        <ele>268.83</ele>
        <time>2017-05-29T12:24:51Z</time>
      </trkpt>
      <trkpt lat="43.97794" lon="5.1595">
        <ele>267.38</ele>
        <time>2017-05-29T12:25:05Z</time>
      </trkpt>
      <trkpt lat="43.97797" lon="5.15964">
        <ele>267.38</ele>
        <time>2017-05-29T12:25:18Z</time>
      </trkpt>
      <trkpt lat="43.97803" lon="5.15983">
        <ele>267.38</ele>
        <time>2017-05-29T12:25:33Z</time>
      </trkpt>
      <trkpt lat="43.97809" lon="5.15994">
        <ele>268.35</ele>
        <time>2017-05-29T12:25:41Z</time>
      </trkpt>
      <trkpt lat="43.97816" lon="5.16014">
        <ele>268.83</ele>
        <time>2017-05-29T12:25:56Z</time>
      </trkpt>
      <trkpt lat="43.9783" lon="5.16036">
        <ele>269.31</ele>
        <time>2017-05-29T12:26:14Z</time>
      </trkpt>
      <trkpt lat="43.97846" lon="5.16044">
        <ele>269.79</ele>
        <time>2017-05-29T12:26:29Z</time>
      </trkpt>
      <trkpt lat="43.9785" lon="5.16047">
        <ele>269.79</ele>
        <time>2017-05-29T12:26:33Z</time>
      </trkpt>
      <trkpt lat="43.9786" lon="5.1606">
        <ele>270.27</ele>
        <time>2017-05-29T12:26:47Z</time>
      </trkpt>
      <trkpt lat="43.97874" lon="5.16078">
        <ele>270.75</ele>
        <time>2017-05-29T12:27:03Z</time>
      </trkpt>
      <trkpt lat="43.9788" lon="5.1609">
        <ele>271.23</ele>
        <time>2017-05-29T12:27:19Z</time>
      </trkpt>
      <trkpt lat="43.97879" lon="5.1611">
        <ele>270.75</ele>
        <time>2017-05-29T12:27:37Z</time>
      </trkpt>
      <trkpt lat="43.97876" lon="5.16125">
        <ele>272.67</ele>
        <time>2017-05-29T12:27:51Z</time>
      </trkpt>
      <trkpt lat="43.97874" lon="5.16143">
        <ele>272.67</ele>
        <time>2017-05-29T12:28:07Z</time>
      </trkpt>
      <trkpt lat="43.9787" lon="5.16166">
        <ele>273.15</ele>
        <time>2017-05-29T12:28:24Z</time>
      </trkpt>
      <trkpt lat="43.97863" lon="5.16175">
        <ele>274.11</ele>
        <time>2017-05-29T12:28:37Z</time>
      </trkpt>
      <trkpt lat="43.97846" lon="5.16193">
        <ele>274.11</ele>
        <time>2017-05-29T12:28:53Z</time>
      </trkpt>
      <trkpt lat="43.9784" lon="5.16207">
        <ele>274.11</ele>
        <time>2017-05-29T12:29:06Z</time>
      </trkpt>
      <trkpt lat="43.97837" lon="5.16226">
        <ele>273.63</ele>
        <time>2017-05-29T12:29:23Z</time>
      </trkpt>
      <trkpt lat="43.9784" lon="5.16234">
        <ele>273.63</ele>
        <time>2017-05-29T12:29:45Z</time>
      </trkpt>
      <trkpt lat="43.97842" lon="5.1624">
        <ele>273.63</ele>
        <time>2017-05-29T12:30:12Z</time>
      </trkpt>
      <trkpt lat="43.97844" lon="5.16241">
        <ele>273.63</ele>
        <time>2017-05-29T12:30:40Z</time>
      </trkpt>
      <trkpt lat="43.97845" lon="5.16241">
        <ele>273.63</ele>
        <time>2017-05-29T12:31:05Z</time>
      </trkpt>
      <trkpt lat="43.97846" lon="5.1624">
        <ele>274.11</ele>
        <time>2017-05-29T12:31:27Z</time>
      </trkpt>
      <trkpt lat="43.97843" lon="5.16245">
        <ele>274.11</ele>
        <time>2017-05-29T12:31:46Z</time>
      </trkpt>
      <trkpt lat="43.97833" lon="5.16252">
        <ele>274.59</ele>
        <time>2017-05-29T12:32:02Z</time>
      </trkpt>
      <trkpt lat="43.97833" lon="5.16254">
        <ele>275.07</ele>
        <time>2017-05-29T12:32:18Z</time>
      </trkpt>
      <trkpt lat="43.97829" lon="5.16266">
        <ele>275.56</ele>
        <time>2017-05-29T12:32:34Z</time>
      </trkpt>
      <trkpt lat="43.97826" lon="5.16284">
        <ele>276.04</ele>
        <time>2017-05-29T12:32:50Z</time>
      </trkpt>
      <trkpt lat="43.97822" lon="5.16295">
        <ele>276.52</ele>
        <time>2017-05-29T12:33:05Z</time>
      </trkpt>
      <trkpt lat="43.97822" lon="5.16313">
        <ele>277.96</ele>
        <time>2017-05-29T12:33:22Z</time>
      </trkpt>
      <trkpt lat="43.9782" lon="5.16328">
        <ele>277.96</ele>
        <time>2017-05-29T12:33:37Z</time>
      </trkpt>
      <trkpt lat="43.97817" lon="5.16341">
        <ele>276.52</ele>
        <time>2017-05-29T12:33:51Z</time>
      </trkpt>
      <trkpt lat="43.97819" lon="5.16358">
        <ele>276.52</ele>
        <time>2017-05-29T12:34:05Z</time>
      </trkpt>
      <trkpt lat="43.97821" lon="5.16376">
        <ele>276.04</ele>
        <time>2017-05-29T12:34:19Z</time>
      </trkpt>
      <trkpt lat="43.97827" lon="5.16398">
        <ele>277.48</ele>
        <time>2017-05-29T12:34:35Z</time>
      </trkpt>
      <trkpt lat="43.97833" lon="5.16411">
        <ele>279.88</ele>
        <time>2017-05-29T12:34:52Z</time>
      </trkpt>
      <trkpt lat="43.97836" lon="5.16433">
        <ele>279.4</ele>
        <time>2017-05-29T12:35:11Z</time>
      </trkpt>
      <trkpt lat="43.97835" lon="5.16453">
        <ele>279.88</ele>
        <time>2017-05-29T12:35:27Z</time>
      </trkpt>
      <trkpt lat="43.97834" lon="5.1647">
        <ele>280.84</ele>
        <time>2017-05-29T12:35:42Z</time>
      </trkpt>
      <trkpt lat="43.97831" lon="5.16492">
        <ele>280.84</ele>
        <time>2017-05-29T12:36:00Z</time>
      </trkpt>
      <trkpt lat="43.97832" lon="5.16516">
        <ele>281.32</ele>
        <time>2017-05-29T12:36:19Z</time>
      </trkpt>
      <trkpt lat="43.97837" lon="5.16541">
        <ele>280.84</ele>
        <time>2017-05-29T12:36:36Z</time>
      </trkpt>
      <trkpt lat="43.97847" lon="5.16562">
        <ele>281.32</ele>
        <time>2017-05-29T12:36:54Z</time>
      </trkpt>
      <trkpt lat="43.97861" lon="5.1658">
        <ele>283.25</ele>
        <time>2017-05-29T12:37:12Z</time>
      </trkpt>
      <trkpt lat="43.97872" lon="5.16596">
        <ele>282.77</ele>
        <time>2017-05-29T12:37:28Z</time>
      </trkpt>
      <trkpt lat="43.97887" lon="5.16611">
        <ele>282.77</ele>
        <time>2017-05-29T12:37:44Z</time>
      </trkpt>
      <trkpt lat="43.97899" lon="5.16625">
        <ele>283.25</ele>
        <time>2017-05-29T12:38:00Z</time>
      </trkpt>
      <trkpt lat="43.97911" lon="5.16632">
        <ele>283.73</ele>
        <time>2017-05-29T12:38:16Z</time>
      </trkpt>
      <trkpt lat="43.97915" lon="5.16634">
        <ele>283.73</ele>
        <time>2017-05-29T12:38:31Z</time>
      </trkpt>
      <trkpt lat="43.97916" lon="5.16635">
        <ele>283.25</ele>
        <time>2017-05-29T12:38:41Z</time>
      </trkpt>
      <trkpt lat="43.97917" lon="5.16635">
        <ele>285.17</ele>
        <time>2017-05-29T12:38:50Z</time>
      </trkpt>
      <trkpt lat="43.97918" lon="5.16635">
        <ele>283.73</ele>
        <time>2017-05-29T12:38:52Z</time>
      </trkpt>
      <trkpt lat="43.97928" lon="5.1664">
        <ele>283.73</ele>
        <time>2017-05-29T12:39:08Z</time>
      </trkpt>
      <trkpt lat="43.97934" lon="5.16651">
        <ele>283.73</ele>
        <time>2017-05-29T12:39:22Z</time>
      </trkpt>
      <trkpt lat="43.97937" lon="5.16675">
        <ele>284.69</ele>
        <time>2017-05-29T12:39:42Z</time>
      </trkpt>
      <trkpt lat="43.97933" lon="5.16693">
        <ele>285.17</ele>
        <time>2017-05-29T12:39:58Z</time>
      </trkpt>
      <trkpt lat="43.97927" lon="5.16712">
        <ele>285.65</ele>
        <time>2017-05-29T12:40:12Z</time>
      </trkpt>
      <trkpt lat="43.97921" lon="5.16731">
        <ele>286.61</ele>
        <time>2017-05-29T12:40:27Z</time>
      </trkpt>
      <trkpt lat="43.97919" lon="5.16748">
        <ele>286.61</ele>
        <time>2017-05-29T12:40:40Z</time>
      </trkpt>
      <trkpt lat="43.97924" lon="5.16769">
        <ele>286.61</ele>
        <time>2017-05-29T12:40:55Z</time>
      </trkpt>
      <trkpt lat="43.97924" lon="5.16781">
        <ele>286.61</ele>
        <time>2017-05-29T12:41:09Z</time>
      </trkpt>
      <trkpt lat="43.97925" lon="5.16805">
        <ele>287.57</ele>
        <time>2017-05-29T12:41:24Z</time>
      </trkpt>
      <trkpt lat="43.97934" lon="5.16817">
        <ele>287.57</ele>
        <time>2017-05-29T12:41:40Z</time>
      </trkpt>
      <trkpt lat="43.97938" lon="5.16831">
        <ele>287.57</ele>
        <time>2017-05-29T12:41:56Z</time>
      </trkpt>
      <trkpt lat="43.97936" lon="5.16847">
        <ele>288.53</ele>
        <time>2017-05-29T12:42:10Z</time>
      </trkpt>
      <trkpt lat="43.97944" lon="5.1687">
        <ele>288.53</ele>
        <time>2017-05-29T12:42:26Z</time>
      </trkpt>
      <trkpt lat="43.97948" lon="5.16887">
        <ele>289.49</ele>
        <time>2017-05-29T12:42:41Z</time>
      </trkpt>
      <trkpt lat="43.97951" lon="5.16898">
        <ele>290.46</ele>
        <time>2017-05-29T12:42:54Z</time>
      </trkpt>
      <trkpt lat="43.97955" lon="5.16912">
        <ele>290.46</ele>
        <time>2017-05-29T12:43:09Z</time>
      </trkpt>
      <trkpt lat="43.97958" lon="5.16927">
        <ele>290.94</ele>
        <time>2017-05-29T12:43:22Z</time>
      </trkpt>
      <trkpt lat="43.97961" lon="5.16949">
        <ele>291.9</ele>
        <time>2017-05-29T12:43:40Z</time>
      </trkpt>
      <trkpt lat="43.97966" lon="5.16973">
        <ele>291.9</ele>
        <time>2017-05-29T12:43:55Z</time>
      </trkpt>
      <trkpt lat="43.97978" lon="5.16977">
        <ele>291.42</ele>
        <time>2017-05-29T12:44:11Z</time>
      </trkpt>
      <trkpt lat="43.97984" lon="5.16982">
        <ele>291.42</ele>
        <time>2017-05-29T12:44:25Z</time>
      </trkpt>
      <trkpt lat="43.97993" lon="5.16991">
        <ele>292.38</ele>
        <time>2017-05-29T12:44:40Z</time>
      </trkpt>
      <trkpt lat="43.97998" lon="5.17009">
        <ele>293.34</ele>
        <time>2017-05-29T12:44:55Z</time>
      </trkpt>
      <trkpt lat="43.98007" lon="5.17028">
        <ele>293.82</ele>
        <time>2017-05-29T12:45:10Z</time>
      </trkpt>
      <trkpt lat="43.98019" lon="5.17042">
        <ele>294.3</ele>
        <time>2017-05-29T12:45:25Z</time>
      </trkpt>
      <trkpt lat="43.9803" lon="5.17042">
        <ele>296.7</ele>
        <time>2017-05-29T12:45:40Z</time>
      </trkpt>
      <trkpt lat="43.98037" lon="5.17042">
        <ele>298.63</ele>
        <time>2017-05-29T12:45:56Z</time>
      </trkpt>
      <trkpt lat="43.98034" lon="5.17056">
        <ele>301.03</ele>
        <time>2017-05-29T12:46:13Z</time>
      </trkpt>
      <trkpt lat="43.98033" lon="5.1707">
        <ele>302.95</ele>
        <time>2017-05-29T12:46:28Z</time>
      </trkpt>
      <trkpt lat="43.98038" lon="5.17075">
        <ele>303.91</ele>
        <time>2017-05-29T12:46:40Z</time>
      </trkpt>
      <trkpt lat="43.98043" lon="5.17079">
        <ele>304.39</ele>
        <time>2017-05-29T12:47:00Z</time>
      </trkpt>
      <trkpt lat="43.98052" lon="5.17093">
        <ele>304.88</ele>
        <time>2017-05-29T12:47:15Z</time>
      </trkpt>
      <trkpt lat="43.98057" lon="5.17099">
        <ele>305.84</ele>
        <time>2017-05-29T12:47:31Z</time>
      </trkpt>
      <trkpt lat="43.98061" lon="5.17099">
        <ele>306.32</ele>
        <time>2017-05-29T12:47:45Z</time>
      </trkpt>
      <trkpt lat="43.98066" lon="5.17095">
        <ele>307.76</ele>
        <time>2017-05-29T12:47:58Z</time>
      </trkpt>
      <trkpt lat="43.98071" lon="5.1709">
        <ele>309.68</ele>
        <time>2017-05-29T12:48:13Z</time>
      </trkpt>
      <trkpt lat="43.98075" lon="5.17089">
        <ele>310.16</ele>
        <time>2017-05-29T12:48:27Z</time>
      </trkpt>
      <trkpt lat="43.98073" lon="5.17088">
        <ele>310.64</ele>
        <time>2017-05-29T12:48:51Z</time>
      </trkpt>
      <trkpt lat="43.98084" lon="5.171">
        <ele>310.64</ele>
        <time>2017-05-29T12:49:13Z</time>
      </trkpt>
      <trkpt lat="43.98095" lon="5.17108">
        <ele>308.72</ele>
        <time>2017-05-29T12:49:29Z</time>
      </trkpt>
      <trkpt lat="43.9811" lon="5.17115">
        <ele>308.72</ele>
        <time>2017-05-29T12:49:46Z</time>
      </trkpt>
      <trkpt lat="43.98125" lon="5.17127">
        <ele>308.24</ele>
        <time>2017-05-29T12:50:04Z</time>
      </trkpt>
      <trkpt lat="43.98138" lon="5.1714">
        <ele>308.24</ele>
        <time>2017-05-29T12:50:19Z</time>
      </trkpt>
      <trkpt lat="43.98152" lon="5.17155">
        <ele>308.24</ele>
        <time>2017-05-29T12:50:35Z</time>
      </trkpt>
      <trkpt lat="43.98154" lon="5.17159">
        <ele>309.68</ele>
        <time>2017-05-29T12:50:39Z</time>
      </trkpt>
      <trkpt lat="43.98161" lon="5.17176">
        <ele>309.68</ele>
        <time>2017-05-29T12:50:53Z</time>
      </trkpt>
      <trkpt lat="43.98174" lon="5.17188">
        <ele>310.64</ele>
        <time>2017-05-29T12:51:07Z</time>
      </trkpt>
      <trkpt lat="43.9819" lon="5.17203">
        <ele>311.6</ele>
        <time>2017-05-29T12:51:27Z</time>
      </trkpt>
      <trkpt lat="43.98202" lon="5.17214">
        <ele>313.05</ele>
        <time>2017-05-29T12:51:43Z</time>
      </trkpt>
      <trkpt lat="43.98213" lon="5.17223">
        <ele>314.01</ele>
        <time>2017-05-29T12:51:58Z</time>
      </trkpt>
      <trkpt lat="43.98226" lon="5.17224">
        <ele>314.49</ele>
        <time>2017-05-29T12:52:12Z</time>
      </trkpt>
      <trkpt lat="43.98241" lon="5.17228">
        <ele>314.97</ele>
        <time>2017-05-29T12:52:29Z</time>
      </trkpt>
      <trkpt lat="43.98254" lon="5.17232">
        <ele>315.45</ele>
        <time>2017-05-29T12:52:45Z</time>
      </trkpt>
      <trkpt lat="43.98268" lon="5.17236">
        <ele>315.45</ele>
        <time>2017-05-29T12:53:02Z</time>
      </trkpt>
      <trkpt lat="43.98283" lon="5.1724">
        <ele>316.89</ele>
        <time>2017-05-29T12:53:19Z</time>
      </trkpt>
      <trkpt lat="43.98293" lon="5.17247">
        <ele>316.41</ele>
        <time>2017-05-29T12:53:33Z</time>
      </trkpt>
      <trkpt lat="43.98306" lon="5.17255">
        <ele>316.89</ele>
        <time>2017-05-29T12:53:47Z</time>
      </trkpt>
      <trkpt lat="43.9832" lon="5.17266">
        <ele>317.37</ele>
        <time>2017-05-29T12:54:04Z</time>
      </trkpt>
      <trkpt lat="43.98331" lon="5.17273">
        <ele>318.33</ele>
        <time>2017-05-29T12:54:19Z</time>
      </trkpt>
      <trkpt lat="43.98343" lon="5.17279">
        <ele>318.81</ele>
        <time>2017-05-29T12:54:34Z</time>
      </trkpt>
      <trkpt lat="43.9836" lon="5.17289">
        <ele>319.78</ele>
        <time>2017-05-29T12:54:55Z</time>
      </trkpt>
      <trkpt lat="43.98375" lon="5.17296">
        <ele>321.22</ele>
        <time>2017-05-29T12:55:11Z</time>
      </trkpt>
      <trkpt lat="43.98391" lon="5.17306">
        <ele>322.18</ele>
        <time>2017-05-29T12:55:29Z</time>
      </trkpt>
      <trkpt lat="43.98395" lon="5.17306">
        <ele>322.18</ele>
        <time>2017-05-29T12:55:43Z</time>
      </trkpt>
      <trkpt lat="43.98397" lon="5.17307">
        <ele>322.18</ele>
        <time>2017-05-29T12:56:04Z</time>
      </trkpt>
      <trkpt lat="43.98401" lon="5.17312">
        <ele>322.18</ele>
        <time>2017-05-29T12:56:21Z</time>
      </trkpt>
      <trkpt lat="43.98409" lon="5.17323">
        <ele>322.18</ele>
        <time>2017-05-29T12:56:36Z</time>
      </trkpt>
      <trkpt lat="43.98422" lon="5.17342">
        <ele>322.18</ele>
        <time>2017-05-29T12:56:56Z</time>
      </trkpt>
      <trkpt lat="43.98426" lon="5.17347">
        <ele>321.22</ele>
        <time>2017-05-29T12:57:02Z</time>
      </trkpt>
      <trkpt lat="43.98439" lon="5.1737">
        <ele>320.26</ele>
        <time>2017-05-29T12:57:22Z</time>
      </trkpt>
      <trkpt lat="43.98454" lon="5.17397">
        <ele>319.78</ele>
        <time>2017-05-29T12:57:43Z</time>
      </trkpt>
      <trkpt lat="43.9847" lon="5.17425">
        <ele>319.78</ele>
        <time>2017-05-29T12:58:07Z</time>
      </trkpt>
      <trkpt lat="43.98481" lon="5.17441">
        <ele>321.22</ele>
        <time>2017-05-29T12:58:23Z</time>
      </trkpt>
      <trkpt lat="43.98502" lon="5.17442">
        <ele>322.18</ele>
        <time>2017-05-29T12:58:45Z</time>
      </trkpt>
      <trkpt lat="43.98519" lon="5.17435">
        <ele>322.66</ele>
        <time>2017-05-29T12:59:04Z</time>
      </trkpt>
      <trkpt lat="43.98541" lon="5.17425">
        <ele>323.62</ele>
        <time>2017-05-29T12:59:26Z</time>
      </trkpt>
      <trkpt lat="43.98559" lon="5.17417">
        <ele>325.06</ele>
        <time>2017-05-29T12:59:45Z</time>
      </trkpt>
      <trkpt lat="43.98571" lon="5.17411">
        <ele>325.54</ele>
        <time>2017-05-29T12:59:58Z</time>
      </trkpt>
      <trkpt lat="43.98588" lon="5.1739">
        <ele>325.54</ele>
        <time>2017-05-29T13:00:21Z</time>
      </trkpt>
      <trkpt lat="43.98596" lon="5.17379">
        <ele>324.58</ele>
        <time>2017-05-29T13:00:33Z</time>
      </trkpt>
      <trkpt lat="43.98602" lon="5.1737">
        <ele>323.14</ele>
        <time>2017-05-29T13:00:39Z</time>
      </trkpt>
      <trkpt lat="43.98615" lon="5.17351">
        <ele>323.14</ele>
        <time>2017-05-29T13:01:00Z</time>
      </trkpt>
      <trkpt lat="43.98616" lon="5.17339">
        <ele>323.14</ele>
        <time>2017-05-29T13:01:12Z</time>
      </trkpt>
      <trkpt lat="43.98615" lon="5.17337">
        <ele>323.14</ele>
        <time>2017-05-29T13:01:18Z</time>
      </trkpt>
      <trkpt lat="43.98602" lon="5.17317">
        <ele>323.14</ele>
        <time>2017-05-29T13:01:38Z</time>
      </trkpt>
      <trkpt lat="43.98594" lon="5.17302">
        <ele>324.1</ele>
        <time>2017-05-29T13:01:55Z</time>
      </trkpt>
      <trkpt lat="43.98585" lon="5.17286">
        <ele>325.54</ele>
        <time>2017-05-29T13:02:10Z</time>
      </trkpt>
      <trkpt lat="43.98578" lon="5.17268">
        <ele>326.99</ele>
        <time>2017-05-29T13:02:25Z</time>
      </trkpt>
      <trkpt lat="43.98572" lon="5.17263">
        <ele>327.47</ele>
        <time>2017-05-29T13:02:35Z</time>
      </trkpt>
      <trkpt lat="43.98563" lon="5.17266">
        <ele>328.43</ele>
        <time>2017-05-29T13:02:49Z</time>
      </trkpt>
      <trkpt lat="43.9856" lon="5.17269">
        <ele>328.91</ele>
        <time>2017-05-29T13:03:12Z</time>
      </trkpt>
    </trkseg>
  </trk>
</gpx>